Observation data for Amarillo 15 North Northwest on 05/24/2019      Previous  Date  Next       Current Mesonet Observations  Soil Data  Daily Summary Page  Observations in Plain Language
KAM3 240500Z 05005KT 13/13 A2997 RMK A01 T01290129  RH  100%=      5-min Rain = 0
KAM3 240501Z 06004KT 13/13 A2997 RMK A01 T01290129  RH  100%=      5-min Rain = 0
KAM3 240502Z 05003KT 13/13 A2997 RMK A01 T01290129  RH  100%=      5-min Rain = 0
KAM3 240503Z 02003KT 13/13 A2997 RMK A01 T01290129  RH  100%=      5-min Rain = 0
KAM3 240504Z 03004KT 13/13 A2997 RMK A01 T01290129  RH  100%=      5-min Rain = 0
KAM3 240505Z 03005KT 13/13 A2996 RMK A01 T01280128  RH  100%=      5-min Rain = 0
KAM3 240506Z 03005KT 13/13 A2996 RMK A01 T01280128  RH  100%=      5-min Rain = 0
KAM3 240507Z 02004KT 13/13 A2996 RMK A01 T01280128  RH  100%=      5-min Rain = 0
KAM3 240508Z 02004KT 13/13 A2996 RMK A01 T01280128  RH  100%=      5-min Rain = 0
KAM3 240509Z 01004KT 13/13 A2996 RMK A01 T01280128  RH  100%=      5-min Rain = 0
KAM3 240510Z 02004KT 13/13 A2996 RMK A01 T01280128  RH  100%=      5-min Rain = 0
KAM3 240511Z 02004KT 13/13 A2995 RMK A01 T01280128  RH  100%=      5-min Rain = 0
KAM3 240512Z 02004KT 13/13 A2995 RMK A01 T01280128  RH  100%=      5-min Rain = 0
KAM3 240513Z 02005KT 13/13 A2995 RMK A01 T01280128  RH  100%=      5-min Rain = 0
KAM3 240514Z 03005KT 13/13 A2995 RMK A01 T01280128  RH  100%=      5-min Rain = 0
KAM3 240515Z 04006KT 13/13 A2995 RMK A01 T01280128  RH  100%=      5-min Rain = 0
KAM3 240516Z 05007KT 13/13 A2995 RMK A01 T01280128  RH  100%=      5-min Rain = 0
KAM3 240517Z 06006KT 13/13 A2995 RMK A01 T01280128  RH  100%=      5-min Rain = 0
KAM3 240518Z 06006KT 13/13 A2995 RMK A01 T01280128  RH  100%=      5-min Rain = 0
KAM3 240519Z 05004KT 13/13 A2995 RMK A01 T01270127  RH  100%=      5-min Rain = 0
KAM3 240520Z 05004KT 13/13 A2995 RMK A01 T01270127  RH  100%=      5-min Rain = 0
KAM3 240521Z 04004KT 13/13 A2995 RMK A01 T01270127  RH  100%=      5-min Rain = 0
KAM3 240522Z 03004KT 13/13 A2995 RMK A01 T01270127  RH  100%=      5-min Rain = 0
KAM3 240523Z 01004KT 13/13 A2995 RMK A01 T01270127  RH  100%=      5-min Rain = 0
KAM3 240524Z 01003KT 13/13 A2996 RMK A01 T01270127  RH  100%=      5-min Rain = 0
KAM3 240525Z 05002KT 13/13 A2996 RMK A01 T01270127  RH  100%=      5-min Rain = 0
KAM3 240526Z 05002KT 13/13 A2996 RMK A01 T01270127  RH  100%=      5-min Rain = 0
KAM3 240527Z 05002KT 13/13 A2996 RMK A01 T01270127  RH  100%=      5-min Rain = 0
KAM3 240528Z 06002KT 13/13 A2996 RMK A01 T01270127  RH  100%=      5-min Rain = 0
KAM3 240529Z 05003KT 13/13 A2996 RMK A01 T01270127  RH  100%=      5-min Rain = 0
KAM3 240530Z 04002KT 13/13 A2996 RMK A01 T01270127  RH  100%=      5-min Rain = 0
KAM3 240531Z 06001KT 13/13 A2996 RMK A01 T01270127  RH  100%=      5-min Rain = 0
KAM3 240532Z 07002KT 13/13 A2996 RMK A01 T01270127  RH  100%=      5-min Rain = 0
KAM3 240533Z 08002KT 13/13 A2996 RMK A01 T01270127  RH  100%=      5-min Rain = 0
KAM3 240534Z 07003KT 13/13 A2996 RMK A01 T01270127  RH  100%=      5-min Rain = 0
KAM3 240535Z 08005KT 13/13 A2996 RMK A01 T01270127  RH  100%=      5-min Rain = 0
KAM3 240536Z 10006KT 13/13 A2996 RMK A01 T01270127  RH  100%=      5-min Rain = 0
KAM3 240537Z 10005KT 13/13 A2996 RMK A01 T01270127  RH  100%=      5-min Rain = 0
KAM3 240538Z 09002KT 13/13 A2996 RMK A01 T01270127  RH  100%=      5-min Rain = 0
KAM3 240539Z 08001KT 13/13 A2996 RMK A01 T01270127  RH  100%=      5-min Rain = 0
KAM3 240540Z 08001KT 13/13 A2995 RMK A01 T01260126  RH  100%=      5-min Rain = 0
KAM3 240541Z 08002KT 13/13 A2995 RMK A01 T01270127  RH  100%=      5-min Rain = 0
KAM3 240542Z 09003KT 13/13 A2995 RMK A01 T01260126  RH  100%=      5-min Rain = 0
KAM3 240543Z 10004KT 13/13 A2996 RMK A01 T01260126  RH  100%=      5-min Rain = 0
KAM3 240544Z 10004KT 13/13 A2996 RMK A01 T01260127  RH  100%=      5-min Rain = 0
KAM3 240545Z 09003KT 13/13 A2995 RMK A01 T01260127  RH  100%=      5-min Rain = 0
KAM3 240546Z 10003KT 13/13 A2995 RMK A01 T01270127  RH  100%=      5-min Rain = 0
KAM3 240547Z 11003KT 13/13 A2995 RMK A01 T01270127  RH  100%=      5-min Rain = 0
KAM3 240548Z 11003KT 13/13 A2995 RMK A01 T01260126  RH  100%=      5-min Rain = 0
KAM3 240549Z 10004KT 13/13 A2995 RMK A01 T01260126  RH  100%=      5-min Rain = 0
KAM3 240550Z 10003KT 13/13 A2995 RMK A01 T01260126  RH  100%=      5-min Rain = 0
KAM3 240551Z 10004KT 13/13 A2995 RMK A01 T01260126  RH  100%=      5-min Rain = 0
KAM3 240552Z 10004KT 13/13 A2995 RMK A01 T01260126  RH  100%=      5-min Rain = 0
KAM3 240553Z 12003KT 13/13 A2995 RMK A01 T01260126  RH  100%=      5-min Rain = 0
KAM3 240554Z 12002KT 13/13 A2995 RMK A01 T01260126  RH  100%=      5-min Rain = 0
KAM3 240555Z 10002KT 13/13 A2995 RMK A01 T01260126  RH  100%=      5-min Rain = 0
KAM3 240556Z 09002KT 13/13 A2995 RMK A01 T01260126  RH  100%=      5-min Rain = 0
KAM3 240557Z 09001KT 13/13 A2995 RMK A01 T01260126  RH  100%=      5-min Rain = 0
KAM3 240558Z 08001KT 13/13 A2995 RMK A01 T01260126  RH  100%=      5-min Rain = 0
KAM3 240559Z 08001KT 13/13 A2995 RMK A01 T01260126  RH  100%=      5-min Rain = 0
KAM3 240600Z 08000KT 13/13 A2995 RMK A01 T01260126  RH  100%=      5-min Rain = 0
KAM3 240601Z 00000KT 13/13 A2995 RMK A01 T01260126  RH  100%=      5-min Rain = 0
KAM3 240602Z 00000KT 13/13 A2995 RMK A01 T01260126  RH  100%=      5-min Rain = 0
KAM3 240603Z 00000KT 13/13 A2995 RMK A01 T01260126  RH  100%=      5-min Rain = 0
KAM3 240604Z 00000KT 13/13 A2995 RMK A01 T01260126  RH  100%=      5-min Rain = 0
KAM3 240605Z 09000KT 13/13 A2995 RMK A01 T01260126  RH  100%=      5-min Rain = 0
KAM3 240606Z 09001KT 13/13 A2994 RMK A01 T01260126  RH  100%=      5-min Rain = 0
KAM3 240607Z 09001KT 13/13 A2994 RMK A01 T01260126  RH  100%=      5-min Rain = 0
KAM3 240608Z 10001KT 13/13 A2994 RMK A01 T01260126  RH  100%=      5-min Rain = 0
KAM3 240609Z 11002KT 13/13 A2994 RMK A01 T01250125  RH  100%=      5-min Rain = 0
KAM3 240610Z 11002KT 13/13 A2994 RMK A01 T01250125  RH  100%=      5-min Rain = 0
KAM3 240611Z 09001KT 13/13 A2994 RMK A01 T01250125  RH  100%=      5-min Rain = 0
KAM3 240612Z 08000KT 13/13 A2994 RMK A01 T01250125  RH  100%=      5-min Rain = 0
KAM3 240613Z 34000KT 13/13 A2993 RMK A01 T01250125  RH  100%=      5-min Rain = 0
KAM3 240614Z 34002KT 13/13 A2993 RMK A01 T01250125  RH  100%=      5-min Rain = 0
KAM3 240615Z 34002KT 12/12 A2993 RMK A01 T01240124  RH  100%=      5-min Rain = 0
KAM3 240616Z 34002KT 12/12 A2993 RMK A01 T01240124  RH  100%=      5-min Rain = 0
KAM3 240617Z 34002KT 12/12 A2993 RMK A01 T01230124  RH  100%=      5-min Rain = 0
KAM3 240618Z 34002KT 12/12 A2993 RMK A01 T01240124  RH  100%=      5-min Rain = 0
KAM3 240619Z 34002KT 12/12 A2993 RMK A01 T01240124  RH  100%=      5-min Rain = 0
KAM3 240620Z 34002KT 12/12 A2993 RMK A01 T01230123  RH  100%=      5-min Rain = 0
KAM3 240621Z 32002KT 12/12 A2993 RMK A01 T01230123  RH  100%=      5-min Rain = 0
KAM3 240622Z 31002KT 12/12 A2993 RMK A01 T01230123  RH  100%=      5-min Rain = 0
KAM3 240623Z 31002KT 12/12 A2993 RMK A01 T01230123  RH  100%=      5-min Rain = 0
KAM3 240624Z 30002KT 12/12 A2993 RMK A01 T01230123  RH  100%=      5-min Rain = 0
KAM3 240625Z 29002KT 12/12 A2993 RMK A01 T01230123  RH  100%=      5-min Rain = 0
KAM3 240626Z 29003KT 12/12 A2993 RMK A01 T01230123  RH  100%=      5-min Rain = 0
KAM3 240627Z 29004KT 12/12 A2994 RMK A01 T01230123  RH  100%=      5-min Rain = 0
KAM3 240628Z 29004KT 12/12 A2994 RMK A01 T01230123  RH  100%=      5-min Rain = 0
KAM3 240629Z 29004KT 12/12 A2994 RMK A01 T01230123  RH  100%=      5-min Rain = 0
KAM3 240630Z 28004KT 12/12 A2994 RMK A01 T01230123  RH  100%=      5-min Rain = 0
KAM3 240631Z 25005KT 12/12 A2994 RMK A01 T01230123  RH  100%=      5-min Rain = 0
KAM3 240632Z 24006KT 12/12 A2994 RMK A01 T01230123  RH  100%=      5-min Rain = 0
KAM3 240633Z 25006KT 12/12 A2994 RMK A01 T01230123  RH  100%=      5-min Rain = 0
KAM3 240634Z 25005KT 12/12 A2994 RMK A01 T01230123  RH  100%=      5-min Rain = 0
KAM3 240635Z 26006KT 12/12 A2994 RMK A01 T01240124  RH  100%=      5-min Rain = 0
KAM3 240636Z 26005KT 12/12 A2994 RMK A01 T01240124  RH  100%=      5-min Rain = 0
KAM3 240637Z 26006KT 12/12 A2994 RMK A01 T01240124  RH  100%=      5-min Rain = 0
KAM3 240638Z 25006KT 12/12 A2994 RMK A01 T01240124  RH  100%=      5-min Rain = 0
KAM3 240639Z 26006KT 12/12 A2994 RMK A01 T01240124  RH  100%=      5-min Rain = 0
KAM3 240640Z 26005KT 12/12 A2994 RMK A01 T01240124  RH  100%=      5-min Rain = 0
KAM3 240641Z 27004KT 13/13 A2994 RMK A01 T01250125  RH  100%=      5-min Rain = 0
KAM3 240642Z 27004KT 13/13 A2994 RMK A01 T01250125  RH  100%=      5-min Rain = 0
KAM3 240643Z 26006KT 13/13 A2994 RMK A01 T01250125  RH  100%=      5-min Rain = 0
KAM3 240644Z 27005KT 13/13 A2994 RMK A01 T01250125  RH  100%=      5-min Rain = 0
KAM3 240645Z 27004KT 13/13 A2994 RMK A01 T01250125  RH  100%=      5-min Rain = 0
KAM3 240646Z 29004KT 13/13 A2994 RMK A01 T01250125  RH  100%=      5-min Rain = 0
KAM3 240647Z 29003KT 13/13 A2995 RMK A01 T01250125  RH  100%=      5-min Rain = 0
KAM3 240648Z 28003KT 13/13 A2995 RMK A01 T01250125  RH  100%=      5-min Rain = 0
KAM3 240649Z 29004KT 12/13 A2995 RMK A01 T01240125  RH  100%=      5-min Rain = 0
KAM3 240650Z 29005KT 12/12 A2996 RMK A01 T01240124  RH  100%=      5-min Rain = 0
KAM3 240651Z 30006KT 12/12 A2996 RMK A01 T01240124  RH  100%=      5-min Rain = 0
KAM3 240652Z 30007KT 12/12 A2996 RMK A01 T01240124  RH  100%=      5-min Rain = 0
KAM3 240653Z 30007KT 12/12 A2996 RMK A01 T01240124  RH  100%=      5-min Rain = 0
KAM3 240654Z 30006KT 12/12 A2996 RMK A01 T01240124  RH  100%=      5-min Rain = 0
KAM3 240655Z 31007KT 12/12 A2996 RMK A01 T01240124  RH  100%=      5-min Rain = 0
KAM3 240656Z 31006KT 12/12 A2996 RMK A01 T01240124  RH  100%=      5-min Rain = 0
KAM3 240657Z 31006KT 12/12 A2996 RMK A01 T01240124  RH  100%=      5-min Rain = 0
KAM3 240658Z 30007KT 12/12 A2996 RMK A01 T01240124  RH  100%=      5-min Rain = 0
KAM3 240659Z 29007KT 12/12 A2996 RMK A01 T01240124  RH  100%=      5-min Rain = 0
KAM3 240700Z 30006KT 12/12 A2996 RMK A01 T01240124  RH  100%=      5-min Rain = 0
KAM3 240701Z 29004KT 12/12 A2996 RMK A01 T01240124  RH  100%=      5-min Rain = 0
KAM3 240702Z 29004KT 12/12 A2996 RMK A01 T01240124  RH  100%=      5-min Rain = 0
KAM3 240703Z 29006KT 12/12 A2996 RMK A01 T01240124  RH  100%=      5-min Rain = 0
KAM3 240704Z 30007KT 12/12 A2996 RMK A01 T01240124  RH  100%=      5-min Rain = 0
KAM3 240705Z 30007KT 12/12 A2996 RMK A01 T01240124  RH  100%=      5-min Rain = 0
KAM3 240706Z 30007KT 12/12 A2996 RMK A01 T01240124  RH  100%=      5-min Rain = 0
KAM3 240707Z 31007KT 12/12 A2996 RMK A01 T01240124  RH  100%=      5-min Rain = 0
KAM3 240708Z 31006KT 12/12 A2996 RMK A01 T01240124  RH  100%=      5-min Rain = 0
KAM3 240709Z 31006KT 12/12 A2996 RMK A01 T01240124  RH  100%=      5-min Rain = 0
KAM3 240710Z 31005KT 12/12 A2996 RMK A01 T01240124  RH  100%=      5-min Rain = 0
KAM3 240711Z 31004KT 12/12 A2996 RMK A01 T01240124  RH  100%=      5-min Rain = 0
KAM3 240712Z 32004KT 12/12 A2996 RMK A01 T01240124  RH  100%=      5-min Rain = 0
KAM3 240713Z 31005KT 12/12 A2996 RMK A01 T01240124  RH  100%=      5-min Rain = 0
KAM3 240714Z 30005KT 12/12 A2996 RMK A01 T01230123  RH  100%=      5-min Rain = 0
KAM3 240715Z 31006KT 12/12 A2995 RMK A01 T01230123  RH  100%=      5-min Rain = 0
KAM3 240716Z 30006KT 12/12 A2995 RMK A01 T01230123  RH  100%=      5-min Rain = 0
KAM3 240717Z 30006KT 12/12 A2995 RMK A01 T01230123  RH  100%=      5-min Rain = 0
KAM3 240718Z 31006KT 12/12 A2995 RMK A01 T01230124  RH  100%=      5-min Rain = 0
KAM3 240719Z 31006KT 12/12 A2995 RMK A01 T01230123  RH  100%=      5-min Rain = 0
KAM3 240720Z 31006KT 12/12 A2995 RMK A01 T01230123  RH  100%=      5-min Rain = 0
KAM3 240721Z 32005KT 12/12 A2995 RMK A01 T01230123  RH  100%=      5-min Rain = 0
KAM3 240722Z 33006KT 12/12 A2995 RMK A01 T01230123  RH  100%=      5-min Rain = 0
KAM3 240723Z 34005KT 12/12 A2995 RMK A01 T01230123  RH  100%=      5-min Rain = 0
KAM3 240724Z 34006KT 12/12 A2995 RMK A01 T01230123  RH  100%=      5-min Rain = 0
KAM3 240725Z 34005KT 12/12 A2995 RMK A01 T01230123  RH  100%=      5-min Rain = 0
KAM3 240726Z 34005KT 12/12 A2995 RMK A01 T01230123  RH  100%=      5-min Rain = 0
KAM3 240727Z 34005KT 12/12 A2995 RMK A01 T01230123  RH  100%=      5-min Rain = 0
KAM3 240728Z 34006KT 12/12 A2995 RMK A01 T01230123  RH  100%=      5-min Rain = 0
KAM3 240729Z 34007KT 12/12 A2995 RMK A01 T01230123  RH  100%=      5-min Rain = 0
KAM3 240730Z 34006KT 12/12 A2995 RMK A01 T01230123  RH  100%=      5-min Rain = 0
KAM3 240731Z 35006KT 12/12 A2995 RMK A01 T01230123  RH  100%=      5-min Rain = 0
KAM3 240732Z 00005KT 12/12 A2995 RMK A01 T01230123  RH  100%=      5-min Rain = 0
KAM3 240733Z 01005KT 12/12 A2995 RMK A01 T01230123  RH  100%=      5-min Rain = 0
KAM3 240734Z 02005KT 12/12 A2995 RMK A01 T01230123  RH  100%=      5-min Rain = 0
KAM3 240735Z 01006KT 12/12 A2995 RMK A01 T01230123  RH  100%=      5-min Rain = 0
KAM3 240736Z 02006KT 12/12 A2995 RMK A01 T01230123  RH  100%=      5-min Rain = 0
KAM3 240737Z 02006KT 12/12 A2995 RMK A01 T01230123  RH  100%=      5-min Rain = 0
KAM3 240738Z 01006KT 12/12 A2995 RMK A01 T01230123  RH  100%=      5-min Rain = 0
KAM3 240739Z 01006KT 12/12 A2995 RMK A01 T01240124  RH  100%=      5-min Rain = 0
KAM3 240740Z 01006KT 12/12 A2995 RMK A01 T01240124  RH  100%=      5-min Rain = 0
KAM3 240741Z 01007KT 12/12 A2995 RMK A01 T01240124  RH  100%=      5-min Rain = 0
KAM3 240742Z 01006KT 12/12 A2995 RMK A01 T01240124  RH  100%=      5-min Rain = 0
KAM3 240743Z 00006KT 12/12 A2995 RMK A01 T01240124  RH  100%=      5-min Rain = 0
KAM3 240744Z 00005KT 12/12 A2995 RMK A01 T01240124  RH  100%=      5-min Rain = 0
KAM3 240745Z 36006KT 12/12 A2994 RMK A01 T01240124  RH  100%=      5-min Rain = 0
KAM3 240746Z 35006KT 12/12 A2994 RMK A01 T01240124  RH  100%=      5-min Rain = 0
KAM3 240747Z 34006KT 12/12 A2994 RMK A01 T01240124  RH  100%=      5-min Rain = 0
KAM3 240748Z 35006KT 12/12 A2994 RMK A01 T01240124  RH  100%=      5-min Rain = 0
KAM3 240749Z 34005KT 12/12 A2994 RMK A01 T01240124  RH  100%=      5-min Rain = 0
KAM3 240750Z 34005KT 12/13 A2995 RMK A01 T01240125  RH  100%=      5-min Rain = 0
KAM3 240751Z 35005KT 12/12 A2995 RMK A01 T01240124  RH  100%=      5-min Rain = 0
KAM3 240752Z 35005KT 12/12 A2995 RMK A01 T01240124  RH  100%=      5-min Rain = 0
KAM3 240753Z 36006KT 12/12 A2995 RMK A01 T01240124  RH  100%=      5-min Rain = 0
KAM3 240754Z 35006KT 12/12 A2995 RMK A01 T01240124  RH  100%=      5-min Rain = 0
KAM3 240755Z 35006KT 13/13 A2995 RMK A01 T01250125  RH  100%=      5-min Rain = 0
KAM3 240756Z 35005KT 13/13 A2996 RMK A01 T01250125  RH  100%=      5-min Rain = 0
KAM3 240757Z 34005KT 13/13 A2996 RMK A01 T01250125  RH  100%=      5-min Rain = 0
KAM3 240758Z 34004KT 13/13 A2996 RMK A01 T01250125  RH  100%=      5-min Rain = 0
KAM3 240759Z 36006KT 13/13 A2996 RMK A01 T01260126  RH  100%=      5-min Rain = 0
KAM3 240800Z 35006KT 13/13 A2996 RMK A01 T01250125  RH  100%=      5-min Rain = 0
KAM3 240801Z 01006KT 12/12 A2995 RMK A01 T01240124  RH  100%=      5-min Rain = 0
KAM3 240802Z 01005KT 12/12 A2996 RMK A01 T01240124  RH  100%=      5-min Rain = 0
KAM3 240803Z 36005KT 12/12 A2996 RMK A01 T01230123  RH  100%=      5-min Rain = 0
KAM3 240804Z 35005KT 12/12 A2996 RMK A01 T01230123  RH  100%=      5-min Rain = 0
KAM3 240805Z 35005KT 12/12 A2996 RMK A01 T01230124  RH  100%=      5-min Rain = 0
KAM3 240806Z 35006KT 12/12 A2996 RMK A01 T01230123  RH  100%=      5-min Rain = 0
KAM3 240807Z 00006KT 12/12 A2996 RMK A01 T01230123  RH  100%=      5-min Rain = 0
KAM3 240808Z 01004KT 12/12 A2996 RMK A01 T01230123  RH  100%=      5-min Rain = 0
KAM3 240809Z 01005KT 12/12 A2997 RMK A01 T01230123  RH  100%=      5-min Rain = 0
KAM3 240810Z 01005KT 12/12 A2997 RMK A01 T01220122  RH  100%=      5-min Rain = 0
KAM3 240811Z 01004KT 12/12 A2997 RMK A01 T01220122  RH  100%=      5-min Rain = 0
KAM3 240812Z 01004KT 12/12 A2997 RMK A01 T01220122  RH  100%=      5-min Rain = 0
KAM3 240813Z 00004KT 12/12 A2997 RMK A01 T01210121  RH  100%=      5-min Rain = 0
KAM3 240814Z 35004KT 12/12 A2997 RMK A01 T01220122  RH  100%=      5-min Rain = 0
KAM3 240815Z 01004KT 12/12 A2997 RMK A01 T01210121  RH  100%=      5-min Rain = 0
KAM3 240816Z 03005KT 12/12 A2997 RMK A01 T01210121  RH  100%=      5-min Rain = 0
KAM3 240817Z 03005KT 12/12 A2997 RMK A01 T01210121  RH  100%=      5-min Rain = 0
KAM3 240818Z 03005KT 12/12 A2997 RMK A01 T01210122  RH  100%=      5-min Rain = 0
KAM3 240819Z 02005KT 12/12 A2997 RMK A01 T01210121  RH  100%=      5-min Rain = 0
KAM3 240820Z 01005KT 12/12 A2997 RMK A01 T01210121  RH  100%=      5-min Rain = 0
KAM3 240821Z 02005KT 12/12 A2997 RMK A01 T01200120  RH  100%=      5-min Rain = 0
KAM3 240822Z 01004KT 12/12 A2998 RMK A01 T01200121  RH  100%=      5-min Rain = 0
KAM3 240823Z 01005KT 12/12 A2998 RMK A01 T01210121  RH  100%=      5-min Rain = 0
KAM3 240824Z 01004KT 12/12 A2998 RMK A01 T01200120  RH  100%=      5-min Rain = 0
KAM3 240825Z 03004KT 12/12 A2997 RMK A01 T01200120  RH  100%=      5-min Rain = 0
KAM3 240826Z 03003KT 12/12 A2998 RMK A01 T01200120  RH  100%=      5-min Rain = 0
KAM3 240827Z 03003KT 12/12 A2998 RMK A01 T01200121  RH  100%=      5-min Rain = 0
KAM3 240828Z 04003KT 12/12 A2998 RMK A01 T01210121  RH  100%=      5-min Rain = 0
KAM3 240829Z 04003KT 12/12 A2998 RMK A01 T01210121  RH  100%=      5-min Rain = 0
KAM3 240830Z 05003KT 12/12 A2998 RMK A01 T01210121  RH  100%=      5-min Rain = 0
KAM3 240831Z 05004KT 12/12 A2998 RMK A01 T01210121  RH  100%=      5-min Rain = 0
KAM3 240832Z 05003KT 12/12 A2998 RMK A01 T01210121  RH  100%=      5-min Rain = 0
KAM3 240833Z 05004KT 12/12 A2998 RMK A01 T01210121  RH  100%=      5-min Rain = 0
KAM3 240834Z 05004KT 12/12 A2998 RMK A01 T01210121  RH  100%=      5-min Rain = 0
KAM3 240835Z 04004KT 12/12 A2998 RMK A01 T01210122  RH  100%=      5-min Rain = 0
KAM3 240836Z 04004KT 12/12 A2998 RMK A01 T01220122  RH  100%=      5-min Rain = 0
KAM3 240837Z 04004KT 12/12 A2998 RMK A01 T01220122  RH  100%=      5-min Rain = 0
KAM3 240838Z 05006KT 12/12 A2998 RMK A01 T01220122  RH  100%=      5-min Rain = 0
KAM3 240839Z 05005KT 12/12 A2999 RMK A01 T01210121  RH  100%=      5-min Rain = 0
KAM3 240840Z 06005KT 12/12 A2999 RMK A01 T01210121  RH  100%=      5-min Rain = 0
KAM3 240841Z 06006KT 12/12 A2999 RMK A01 T01210121  RH  100%=      5-min Rain = 0
KAM3 240842Z 06006KT 12/12 A2999 RMK A01 T01210121  RH  100%=      5-min Rain = 0
KAM3 240843Z 06006KT 12/12 A2999 RMK A01 T01200120  RH  100%=      5-min Rain = 0
KAM3 240844Z 05006KT 12/12 A2999 RMK A01 T01200121  RH  100%=      5-min Rain = 0
KAM3 240845Z 05007KT 12/12 A2998 RMK A01 T01200120  RH  100%=      5-min Rain = 0
KAM3 240846Z 04007KT 12/12 A2998 RMK A01 T01200120  RH  100%=      5-min Rain = 0
KAM3 240847Z 05007KT 12/12 A2998 RMK A01 T01190119  RH  100%=      5-min Rain = 0
KAM3 240848Z 05007KT 12/12 A2998 RMK A01 T01190119  RH  100%=      5-min Rain = 0
KAM3 240849Z 05006KT 12/12 A2998 RMK A01 T01190119  RH  100%=      5-min Rain = 0
KAM3 240850Z 05006KT 12/12 A2998 RMK A01 T01190119  RH  100%=      5-min Rain = 0
KAM3 240851Z 05006KT 12/12 A2999 RMK A01 T01190119  RH  100%=      5-min Rain = 0
KAM3 240852Z 06005KT 12/12 A2999 RMK A01 T01190119  RH  100%=      5-min Rain = 0
KAM3 240853Z 05006KT 12/12 A2999 RMK A01 T01190119  RH  100%=      5-min Rain = 0
KAM3 240854Z 06005KT 12/12 A2999 RMK A01 T01190119  RH  100%=      5-min Rain = 0
KAM3 240855Z 04005KT 12/12 A2999 RMK A01 T01190119  RH  100%=      5-min Rain = 0
KAM3 240856Z 04005KT 12/12 A2999 RMK A01 T01190119  RH  100%=      5-min Rain = 0
KAM3 240857Z 04004KT 12/12 A2999 RMK A01 T01190119  RH  100%=      5-min Rain = 0
KAM3 240858Z 06005KT 12/12 A2999 RMK A01 T01190119  RH  100%=      5-min Rain = 0
KAM3 240859Z 07005KT 12/12 A2999 RMK A01 T01180118  RH  100%=      5-min Rain = 0
KAM3 240900Z 08004KT 12/12 A2999 RMK A01 T01180118  RH  100%=      5-min Rain = 0
KAM3 240901Z 07005KT 12/12 A2999 RMK A01 T01190119  RH  100%=      5-min Rain = 0
KAM3 240902Z 07004KT 12/12 A2999 RMK A01 T01180118  RH  100%=      5-min Rain = 0
KAM3 240903Z 05005KT 12/12 A2999 RMK A01 T01180118  RH  100%=      5-min Rain = 0
KAM3 240904Z 05005KT 12/12 A2999 RMK A01 T01180118  RH  100%=      5-min Rain = 0
KAM3 240905Z 04005KT 12/12 A2999 RMK A01 T01180118  RH  100%=      5-min Rain = 0
KAM3 240906Z 03005KT 12/12 A2998 RMK A01 T01180118  RH  100%=      5-min Rain = 0
KAM3 240907Z 02005KT 12/12 A2998 RMK A01 T01180118  RH  100%=      5-min Rain = 0
KAM3 240908Z 02005KT 12/12 A2998 RMK A01 T01180118  RH  100%=      5-min Rain = 0
KAM3 240909Z 03005KT 12/12 A2998 RMK A01 T01180118  RH  100%=      5-min Rain = 0
KAM3 240910Z 04004KT 12/12 A2998 RMK A01 T01180118  RH  100%=      5-min Rain = 0
KAM3 240911Z 03005KT 12/12 A2998 RMK A01 T01180118  RH  100%=      5-min Rain = 0
KAM3 240912Z 02006KT 12/12 A2998 RMK A01 T01180118  RH  100%=      5-min Rain = 0
KAM3 240913Z 02006KT 12/12 A2998 RMK A01 T01180118  RH  100%=      5-min Rain = 0
KAM3 240914Z 02005KT 12/12 A2998 RMK A01 T01180118  RH  100%=      5-min Rain = 0
KAM3 240915Z 02004KT 12/12 A2999 RMK A01 T01180118  RH  100%=      5-min Rain = 0
KAM3 240916Z 02004KT 12/12 A2998 RMK A01 T01180118  RH  100%=      5-min Rain = 0
KAM3 240917Z 02004KT 12/12 A2998 RMK A01 T01170118  RH  100%=      5-min Rain = 0
KAM3 240918Z 01004KT 12/12 A2998 RMK A01 T01170117  RH  100%=      5-min Rain = 0
KAM3 240919Z 36004KT 12/12 A2998 RMK A01 T01170117  RH  100%=      5-min Rain = 0
KAM3 240920Z 35005KT 12/12 A2998 RMK A01 T01170117  RH  100%=      5-min Rain = 0
KAM3 240921Z 35006KT 12/12 A2997 RMK A01 T01170117  RH  100%=      5-min Rain = 0
KAM3 240922Z 35006KT 12/12 A2997 RMK A01 T01180118  RH  100%=      5-min Rain = 0
KAM3 240923Z 36005KT 12/12 A2997 RMK A01 T01180118  RH  100%=      5-min Rain = 0
KAM3 240924Z 00005KT 12/12 A2997 RMK A01 T01180118  RH  100%=      5-min Rain = 0
KAM3 240925Z 00005KT 12/12 A2997 RMK A01 T01180118  RH  100%=      5-min Rain = 0
KAM3 240926Z 00007KT 12/12 A2997 RMK A01 T01180118  RH  100%=      5-min Rain = 0
KAM3 240927Z 36007KT 12/12 A2997 RMK A01 T01180118  RH  100%=      5-min Rain = 0
KAM3 240928Z 36007KT 12/12 A2996 RMK A01 T01180118  RH  100%=      5-min Rain = 0
KAM3 240929Z 01005KT 12/12 A2996 RMK A01 T01180118  RH  100%=      5-min Rain = 0
KAM3 240930Z 36005KT 12/12 A2996 RMK A01 T01180118  RH  100%=      5-min Rain = 0
KAM3 240931Z 35006KT 12/12 A2997 RMK A01 T01180118  RH  100%=      5-min Rain = 0
KAM3 240932Z 35005KT 12/12 A2997 RMK A01 T01180118  RH  100%=      5-min Rain = 0
KAM3 240933Z 35007KT 12/12 A2997 RMK A01 T01170118  RH  100%=      5-min Rain = 0
KAM3 240934Z 36007KT 12/12 A2997 RMK A01 T01170117  RH  100%=      5-min Rain = 0
KAM3 240935Z 00008KT 12/12 A2997 RMK A01 T01160116  RH  100%=      5-min Rain = 0
KAM3 240936Z 00008KT 12/12 A2997 RMK A01 T01160116  RH  100%=      5-min Rain = 0
KAM3 240937Z 36007KT 12/12 A2997 RMK A01 T01160117  RH  100%=      5-min Rain = 0
KAM3 240938Z 35005KT 12/12 A2997 RMK A01 T01160116  RH  100%=      5-min Rain = 0
KAM3 240939Z 35005KT 12/12 A2997 RMK A01 T01160116  RH  100%=      5-min Rain = 0
KAM3 240940Z 35006KT 12/12 A2997 RMK A01 T01160116  RH  100%=      5-min Rain = 0
KAM3 240941Z 35006KT 12/12 A2997 RMK A01 T01160116  RH  100%=      5-min Rain = 0
KAM3 240942Z 36006KT 12/12 A2997 RMK A01 T01160116  RH  100%=      5-min Rain = 0
KAM3 240943Z 36006KT 12/12 A2997 RMK A01 T01160116  RH  100%=      5-min Rain = 0
KAM3 240944Z 36005KT 12/12 A2997 RMK A01 T01160116  RH  100%=      5-min Rain = 0
KAM3 240945Z 00004KT 12/12 A2997 RMK A01 T01160116  RH  100%=      5-min Rain = 0
KAM3 240946Z 01005KT 12/12 A2997 RMK A01 T01160116  RH  100%=      5-min Rain = 0
KAM3 240947Z 01006KT 12/12 A2997 RMK A01 T01160116  RH  100%=      5-min Rain = 0
KAM3 240948Z 00008KT 12/12 A2997 RMK A01 T01160116  RH  100%=      5-min Rain = 0
KAM3 240949Z 36007KT 12/12 A2997 RMK A01 T01160116  RH  100%=      5-min Rain = 0
KAM3 240950Z 36005KT 12/12 A2997 RMK A01 T01160116  RH  100%=      5-min Rain = 0
KAM3 240951Z 01004KT 12/12 A2998 RMK A01 T01160116  RH  100%=      5-min Rain = 0
KAM3 240952Z 01004KT 12/12 A2998 RMK A01 T01160116  RH  100%=      5-min Rain = 0
KAM3 240953Z 02006KT 12/12 A2998 RMK A01 T01160116  RH  100%=      5-min Rain = 0
KAM3 240954Z 01006KT 12/12 A2997 RMK A01 T01160116  RH  100%=      5-min Rain = 0
KAM3 240955Z 01006KT 12/12 A2997 RMK A01 T01160116  RH  100%=      5-min Rain = 0
KAM3 240956Z 02005KT 12/12 A2998 RMK A01 T01160116  RH  100%=      5-min Rain = 0
KAM3 240957Z 03005KT 12/12 A2999 RMK A01 T01150115  RH  100%=      5-min Rain = 0
KAM3 240958Z 03005KT 12/12 A2999 RMK A01 T01150115  RH  100%=      5-min Rain = 0
KAM3 240959Z 04005KT 12/12 A2999 RMK A01 T01150115  RH  100%=      5-min Rain = 0
KAM3 241000Z 03005KT 12/12 A2999 RMK A01 T01150115  RH  100%=      5-min Rain = 0
KAM3 241001Z 02005KT 12/12 A2999 RMK A01 T01160116  RH  100%=      5-min Rain = 0
KAM3 241002Z 02005KT 12/12 A2999 RMK A01 T01160116  RH  100%=      5-min Rain = 0
KAM3 241003Z 02005KT 12/12 A2999 RMK A01 T01160116  RH  100%=      5-min Rain = 0
KAM3 241004Z 02005KT 12/12 A2999 RMK A01 T01160116  RH  100%=      5-min Rain = 0
KAM3 241005Z 02004KT 12/12 A2999 RMK A01 T01160116  RH  100%=      5-min Rain = 0
KAM3 241006Z 02004KT 12/12 A2999 RMK A01 T01160116  RH  100%=      5-min Rain = 0
KAM3 241007Z 02005KT 12/12 A2999 RMK A01 T01160116  RH  100%=      5-min Rain = 0
KAM3 241008Z 01005KT 12/12 A2999 RMK A01 T01160116  RH  100%=      5-min Rain = 0
KAM3 241009Z 02005KT 12/12 A2999 RMK A01 T01160116  RH  100%=      5-min Rain = 0
KAM3 241010Z 02004KT 12/12 A2999 RMK A01 T01150115  RH  100%=      5-min Rain = 0
KAM3 241011Z 05004KT 12/12 A2999 RMK A01 T01150116  RH  100%=      5-min Rain = 0
KAM3 241012Z 05004KT 12/12 A2999 RMK A01 T01160116  RH  100%=      5-min Rain = 0
KAM3 241013Z 05004KT 12/12 A2999 RMK A01 T01160116  RH  100%=      5-min Rain = 0
KAM3 241014Z 05005KT 12/12 A2999 RMK A01 T01160116  RH  100%=      5-min Rain = 0
KAM3 241015Z 04005KT 12/12 A2999 RMK A01 T01160116  RH  100%=      5-min Rain = 0
KAM3 241016Z 04005KT 12/12 A2999 RMK A01 T01160116  RH  100%=      5-min Rain = 0
KAM3 241017Z 05006KT 12/12 A2999 RMK A01 T01160116  RH  100%=      5-min Rain = 0
KAM3 241018Z 05006KT 12/12 A2999 RMK A01 T01160116  RH  100%=      5-min Rain = 0
KAM3 241019Z 05006KT 12/12 A2999 RMK A01 T01150115  RH  100%=      5-min Rain = 0
KAM3 241020Z 05005KT 12/12 A2999 RMK A01 T01160116  RH  100%=      5-min Rain = 0
KAM3 241021Z 05005KT 12/12 A30 RMK A01 T01150115  RH  100%=      5-min Rain = 0
KAM3 241022Z 06005KT 12/12 A30 RMK A01 T01150115  RH  100%=      5-min Rain = 0
KAM3 241023Z 05006KT 12/12 A30 RMK A01 T01160116  RH  100%=      5-min Rain = 0
KAM3 241024Z 05006KT 12/12 A2999 RMK A01 T01160116  RH  100%=      5-min Rain = 0
KAM3 241025Z 05006KT 12/12 A2999 RMK A01 T01160116  RH  100%=      5-min Rain = 0
KAM3 241026Z 06006KT 12/12 A2999 RMK A01 T01150115  RH  100%=      5-min Rain = 0
KAM3 241027Z 06005KT 12/12 A30 RMK A01 T01160116  RH  100%=      5-min Rain = 0
KAM3 241028Z 07005KT 12/12 A30 RMK A01 T01160116  RH  100%=      5-min Rain = 0
KAM3 241029Z 06006KT 12/12 A30 RMK A01 T01160116  RH  100%=      5-min Rain = 0
KAM3 241030Z 06004KT 12/12 A30 RMK A01 T01160116  RH  100%=      5-min Rain = 0
KAM3 241031Z 06004KT 12/12 A30 RMK A01 T01160116  RH  100%=      5-min Rain = 0
KAM3 241032Z 05004KT 12/12 A2999 RMK A01 T01160116  RH  100%=      5-min Rain = 0
KAM3 241033Z 04006KT 12/12 A2999 RMK A01 T01160116  RH  100%=      5-min Rain = 0
KAM3 241034Z 05007KT 12/12 A2999 RMK A01 T01160116  RH  100%=      5-min Rain = 0
KAM3 241035Z 06006KT 12/12 A30 RMK A01 T01160116  RH  100%=      5-min Rain = 0
KAM3 241036Z 06006KT 12/12 A30 RMK A01 T01160116  RH  100%=      5-min Rain = 0
KAM3 241037Z 06006KT 12/12 A30 RMK A01 T01160116  RH  100%=      5-min Rain = 0
KAM3 241038Z 06007KT 12/12 A30 RMK A01 T01160116  RH  100%=      5-min Rain = 0
KAM3 241039Z 06007KT 12/12 A30 RMK A01 T01160116  RH  100%=      5-min Rain = 0
KAM3 241040Z 05006KT 12/12 A3001 RMK A01 T01160116  RH  100%=      5-min Rain = 0
KAM3 241041Z 05006KT 12/12 A3001 RMK A01 T01160116  RH  100%=      5-min Rain = 0
KAM3 241042Z 06007KT 12/12 A3001 RMK A01 T01160116  RH  100%=      5-min Rain = 0
KAM3 241043Z 06008KT 12/12 A3001 RMK A01 T01150115  RH  100%=      5-min Rain = 0
KAM3 241044Z 06006KT 12/12 A3001 RMK A01 T01150115  RH  100%=      5-min Rain = 0
KAM3 241045Z 06007KT 12/12 A3001 RMK A01 T01160116  RH  100%=      5-min Rain = 0
KAM3 241046Z 06007KT 12/12 A3001 RMK A01 T01150115  RH  100%=      5-min Rain = 0
KAM3 241047Z 06006KT 12/12 A3001 RMK A01 T01150116  RH  100%=      5-min Rain = 0
KAM3 241048Z 06005KT 12/12 A3001 RMK A01 T01150115  RH  100%=      5-min Rain = 0
KAM3 241049Z 06005KT 12/12 A3001 RMK A01 T01150115  RH  100%=      5-min Rain = 0
KAM3 241050Z 05006KT 12/12 A3001 RMK A01 T01160116  RH  100%=      5-min Rain = 0
KAM3 241051Z 05006KT 12/12 A3001 RMK A01 T01160116  RH  100%=      5-min Rain = 0
KAM3 241052Z 05007KT 12/12 A3001 RMK A01 T01150115  RH  100%=      5-min Rain = 0
KAM3 241053Z 05007KT 12/12 A3001 RMK A01 T01150116  RH  100%=      5-min Rain = 0
KAM3 241054Z 05007KT 12/12 A3001 RMK A01 T01150116  RH  100%=      5-min Rain = 0
KAM3 241055Z 05006KT 12/12 A3001 RMK A01 T01150115  RH  100%=      5-min Rain = 0
KAM3 241056Z 04006KT 12/12 A3001 RMK A01 T01150115  RH  100%=      5-min Rain = 0
KAM3 241057Z 04006KT 12/12 A3001 RMK A01 T01160116  RH  100%=      5-min Rain = 0
KAM3 241058Z 04006KT 12/12 A3001 RMK A01 T01150115  RH  100%=      5-min Rain = 0
KAM3 241059Z 05007KT 12/12 A3001 RMK A01 T01150115  RH  100%=      5-min Rain = 0
KAM3 241100Z 06006KT 12/12 A3001 RMK A01 T01150116  RH  100%=      5-min Rain = 0
KAM3 241101Z 06005KT 12/12 A3001 RMK A01 T01150116  RH  100%=      5-min Rain = 0
KAM3 241102Z 05005KT 12/12 A3001 RMK A01 T01150115  RH  100%=      5-min Rain = 0
KAM3 241103Z 05004KT 12/12 A3001 RMK A01 T01150115  RH  100%=      5-min Rain = 0
KAM3 241104Z 06005KT 12/12 A3001 RMK A01 T01150116  RH  100%=      5-min Rain = 0
KAM3 241105Z 05006KT 12/12 A3001 RMK A01 T01150115  RH  100%=      5-min Rain = 0
KAM3 241106Z 04007KT 12/12 A3001 RMK A01 T01150116  RH  100%=      5-min Rain = 0
KAM3 241107Z 04006KT 12/12 A3001 RMK A01 T01150116  RH  100%=      5-min Rain = 0
KAM3 241108Z 05007KT 12/12 A3001 RMK A01 T01150115  RH  100%=      5-min Rain = 0
KAM3 241109Z 05007KT 12/12 A3001 RMK A01 T01150115  RH  100%=      5-min Rain = 0
KAM3 241110Z 05007KT 12/12 A3001 RMK A01 T01150115  RH  100%=      5-min Rain = 0
KAM3 241111Z 04006KT 11/12 A3001 RMK A01 T01140115  RH  100%=      5-min Rain = 0
KAM3 241112Z 05006KT 11/12 A3001 RMK A01 T01140115  RH  100%=      5-min Rain = 0
KAM3 241113Z 04007KT 11/12 A3001 RMK A01 T01140115  RH  100%=      5-min Rain = 0
KAM3 241114Z 05007KT 12/12 A3001 RMK A01 T01150115  RH  100%=      5-min Rain = 0
KAM3 241115Z 05007KT 12/12 A3001 RMK A01 T01150115  RH  100%=      5-min Rain = 0
KAM3 241116Z 04005KT 12/12 A3001 RMK A01 T01150115  RH  100%=      5-min Rain = 0
KAM3 241117Z 03005KT 11/11 A3001 RMK A01 T01140114  RH  100%=      5-min Rain = 0
KAM3 241118Z 04006KT 12/12 A3001 RMK A01 T01150115  RH  100%=      5-min Rain = 0
KAM3 241119Z 04006KT 11/11 A3001 RMK A01 T01140114  RH  100%=      5-min Rain = 0
KAM3 241120Z 03006KT 11/12 A3001 RMK A01 T01140115  RH  100%=      5-min Rain = 0
KAM3 241121Z 04005KT 11/11 A3001 RMK A01 T01140114  RH  100%=      5-min Rain = 0
KAM3 241122Z 05005KT 12/12 A3001 RMK A01 T01150115  RH  100%=      5-min Rain = 0
KAM3 241123Z 03006KT 11/11 A3001 RMK A01 T01140114  RH  100%=      5-min Rain = 0
KAM3 241124Z 04006KT 12/12 A3001 RMK A01 T01150115  RH  100%=      5-min Rain = 0
KAM3 241125Z 03005KT 11/12 A3001 RMK A01 T01140115  RH  100%=      5-min Rain = 0
KAM3 241126Z 04007KT 12/12 A3001 RMK A01 T01150115  RH  100%=      5-min Rain = 0
KAM3 241127Z 05006KT 11/12 A3001 RMK A01 T01140115  RH  100%=      5-min Rain = 0
KAM3 241128Z 05006KT 11/11 A3002 RMK A01 T01140114  RH  100%=      5-min Rain = 0
KAM3 241129Z 05006KT 12/12 A3002 RMK A01 T01150115  RH  100%=      5-min Rain = 0
KAM3 241130Z 05005KT 11/11 A3002 RMK A01 T01140114  RH  100%=      5-min Rain = 0
KAM3 241131Z 05005KT 11/11 A3002 RMK A01 T01140114  RH  100%=      5-min Rain = 0
KAM3 241132Z 05006KT 12/12 A3002 RMK A01 T01150115  RH  100%=      5-min Rain = 0
KAM3 241133Z 06005KT 12/12 A3002 RMK A01 T01150115  RH  100%=      5-min Rain = 0
KAM3 241134Z 06005KT 11/11 A3002 RMK A01 T01140114  RH  100%=      5-min Rain = 0
KAM3 241135Z 06005KT 11/11 A3002 RMK A01 T01140114  RH  100%=      5-min Rain = 0
KAM3 241136Z 06004KT 11/11 A3002 RMK A01 T01140114  RH  100%=      5-min Rain = 0
KAM3 241137Z 05004KT 11/11 A3002 RMK A01 T01140114  RH  100%=      5-min Rain = 0
KAM3 241138Z 05005KT 11/11 A3002 RMK A01 T01140114  RH  100%=      5-min Rain = 0
KAM3 241139Z 05004KT 11/11 A3002 RMK A01 T01140114  RH  100%=      5-min Rain = 0
KAM3 241140Z 04004KT 11/11 A3002 RMK A01 T01140114  RH  100%=      5-min Rain = 0
KAM3 241141Z 04005KT 11/11 A3001 RMK A01 T01140114  RH  100%=      5-min Rain = 0
KAM3 241142Z 04005KT 11/11 A3001 RMK A01 T01140114  RH  100%=      5-min Rain = 0
KAM3 241143Z 04005KT 11/11 A3001 RMK A01 T01140114  RH  100%=      5-min Rain = 0
KAM3 241144Z 04005KT 11/11 A3001 RMK A01 T01140114  RH  100%=      5-min Rain = 0
KAM3 241145Z 03003KT 11/11 A3001 RMK A01 T01140114  RH  100%=      5-min Rain = 0
KAM3 241146Z 04003KT 11/11 A3001 RMK A01 T01140114  RH  100%=      5-min Rain = 0
KAM3 241147Z 04004KT 11/11 A3001 RMK A01 T01140114  RH  100%=      5-min Rain = 0
KAM3 241148Z 05003KT 11/11 A3002 RMK A01 T01140114  RH  100%=      5-min Rain = 0
KAM3 241149Z 04004KT 11/11 A3002 RMK A01 T01140114  RH  100%=      5-min Rain = 0
KAM3 241150Z 05004KT 11/11 A3001 RMK A01 T01140114  RH  100%=      5-min Rain = 0
KAM3 241151Z 06004KT 11/11 A3001 RMK A01 T01140114  RH  100%=      5-min Rain = 0
KAM3 241152Z 02005KT 11/11 A3001 RMK A01 T01140114  RH  100%=      5-min Rain = 0
KAM3 241153Z 03003KT 11/11 A3002 RMK A01 T01140114  RH  100%=      5-min Rain = 0
KAM3 241154Z 04003KT 11/11 A3002 RMK A01 T01130113  RH  100%=      5-min Rain = 0
KAM3 241155Z 05002KT 11/11 A3002 RMK A01 T01130113  RH  100%=      5-min Rain = 0
KAM3 241156Z 05003KT 11/11 A3001 RMK A01 T01130113  RH  100%=      5-min Rain = 0
KAM3 241157Z 03005KT 11/11 A3001 RMK A01 T01130113  RH  100%=      5-min Rain = 0
KAM3 241158Z 03005KT 11/11 A3001 RMK A01 T01130113  RH  100%=      5-min Rain = 0
KAM3 241159Z 02004KT 11/11 A3001 RMK A01 T01130113  RH  100%=      5-min Rain = 0
KAM3 241200Z 02004KT 11/11 A3001 RMK A01 T01130113  RH  100%=      5-min Rain = 0
KAM3 241201Z 04003KT 11/11 A3001 RMK A01 T01120112  RH  100%=      5-min Rain = 0
KAM3 241202Z 04004KT 11/11 A3001 RMK A01 T01120112  RH  100%=      5-min Rain = 0
KAM3 241203Z 04004KT 11/11 A3001 RMK A01 T01120112  RH  100%=      5-min Rain = 0
KAM3 241204Z 04004KT 11/11 A3001 RMK A01 T01120112  RH  100%=      5-min Rain = 0
KAM3 241205Z 03004KT 11/11 A3001 RMK A01 T01130113  RH  100%=      5-min Rain = 0
KAM3 241206Z 02006KT 11/11 A3001 RMK A01 T01130113  RH  100%=      5-min Rain = 0
KAM3 241207Z 01005KT 11/11 A3001 RMK A01 T01130113  RH  100%=      5-min Rain = 0
KAM3 241208Z 01006KT 11/11 A3001 RMK A01 T01130113  RH  100%=      5-min Rain = 0
KAM3 241209Z 01005KT 11/11 A3001 RMK A01 T01120112  RH  100%=      5-min Rain = 0
KAM3 241210Z 01005KT 11/11 A3001 RMK A01 T01120112  RH  100%=      5-min Rain = 0
KAM3 241211Z 01004KT 11/11 A3001 RMK A01 T01120112  RH  100%=      5-min Rain = 0
KAM3 241212Z 35004KT 11/11 A3001 RMK A01 T01120112  RH  100%=      5-min Rain = 0
KAM3 241213Z 01003KT 11/11 A3001 RMK A01 T01120112  RH  100%=      5-min Rain = 0
KAM3 241214Z 03003KT 11/11 A3001 RMK A01 T01120112  RH  100%=      5-min Rain = 0
KAM3 241215Z 06002KT 11/11 A3001 RMK A01 T01120112  RH  100%=      5-min Rain = 0
KAM3 241216Z 05005KT 11/11 A3001 RMK A01 T01120112  RH  100%=      5-min Rain = 0
KAM3 241217Z 04003KT 11/11 A3002 RMK A01 T01120112  RH  100%=      5-min Rain = 0
KAM3 241218Z 36002KT 11/11 A3002 RMK A01 T01120112  RH  100%=      5-min Rain = 0
KAM3 241219Z 35002KT 11/11 A3002 RMK A01 T01120112  RH  100%=      5-min Rain = 0
KAM3 241220Z 01003KT 11/11 A3002 RMK A01 T01120112  RH  100%=      5-min Rain = 0
KAM3 241221Z 03003KT 11/11 A3001 RMK A01 T01130113  RH  100%=      5-min Rain = 0
KAM3 241222Z 03003KT 11/11 A3001 RMK A01 T01130113  RH  100%=      5-min Rain = 0
KAM3 241223Z 04002KT 11/11 A3002 RMK A01 T01140114  RH  100%=      5-min Rain = 0
KAM3 241224Z 02001KT 11/11 A3002 RMK A01 T01140114  RH  100%=      5-min Rain = 0
KAM3 241225Z 03001KT 11/11 A3002 RMK A01 T01140114  RH  100%=      5-min Rain = 0
KAM3 241226Z 02002KT 11/11 A3002 RMK A01 T01140114  RH  100%=      5-min Rain = 0
KAM3 241227Z 03001KT 11/11 A3002 RMK A01 T01140114  RH  100%=      5-min Rain = 0
KAM3 241228Z 03000KT 11/11 A3002 RMK A01 T01140114  RH  100%=      5-min Rain = 0
KAM3 241229Z 33002KT 11/11 A3002 RMK A01 T01140114  RH  100%=      5-min Rain = 0
KAM3 241230Z 34002KT 12/12 A3002 RMK A01 T01150115  RH  100%=      5-min Rain = 0
KAM3 241231Z 00003KT 12/12 A3002 RMK A01 T01150115  RH  100%=      5-min Rain = 0
KAM3 241232Z 01002KT 12/12 A3002 RMK A01 T01150115  RH  100%=      5-min Rain = 0
KAM3 241233Z 01002KT 11/11 A3002 RMK A01 T01140114  RH  100%=      5-min Rain = 0
KAM3 241234Z 01002KT 11/11 A3002 RMK A01 T01140114  RH  100%=      5-min Rain = 0
KAM3 241235Z 01002KT 12/12 A3002 RMK A01 T01150115  RH  100%=      5-min Rain = 0
KAM3 241236Z 01003KT 12/12 A3002 RMK A01 T01150115  RH  100%=      5-min Rain = 0
KAM3 241237Z 35002KT 12/12 A3002 RMK A01 T01150116  RH  100%=      5-min Rain = 0
KAM3 241238Z 36003KT 12/12 A3002 RMK A01 T01160116  RH  100%=      5-min Rain = 0
KAM3 241239Z 00002KT 12/12 A3002 RMK A01 T01170117  RH  100%=      5-min Rain = 0
KAM3 241240Z 35002KT 12/12 A3002 RMK A01 T01170117  RH  100%=      5-min Rain = 0
KAM3 241241Z 01001KT 12/12 A3002 RMK A01 T01160116  RH  100%=      5-min Rain = 0
KAM3 241242Z 04001KT 12/12 A3002 RMK A01 T01160117  RH  100%=      5-min Rain = 0
KAM3 241243Z 04001KT 12/12 A3001 RMK A01 T01170117  RH  100%=      5-min Rain = 0
KAM3 241244Z 02001KT 12/12 A3001 RMK A01 T01170117  RH  100%=      5-min Rain = 0
KAM3 241245Z 33001KT 12/12 A3001 RMK A01 T01180118  RH  100%=      5-min Rain = 0
KAM3 241246Z 33001KT 12/12 A3002 RMK A01 T01180118  RH  100%=      5-min Rain = 0
KAM3 241247Z 01001KT 12/12 A3002 RMK A01 T01180118  RH  100%=      5-min Rain = 0
KAM3 241248Z 01002KT 12/12 A3002 RMK A01 T01180118  RH  100%=      5-min Rain = 0
KAM3 241249Z 01002KT 12/12 A3002 RMK A01 T01180118  RH  100%=      5-min Rain = 0
KAM3 241250Z 36002KT 12/12 A3002 RMK A01 T01180118  RH  100%=      5-min Rain = 0
KAM3 241251Z 34002KT 12/12 A3002 RMK A01 T01170117  RH  100%=      5-min Rain = 0
KAM3 241252Z 34001KT 12/12 A3002 RMK A01 T01160116  RH  100%=      5-min Rain = 0
KAM3 241253Z 02001KT 12/12 A3001 RMK A01 T01160116  RH  100%=      5-min Rain = 0
KAM3 241254Z 01002KT 12/12 A3001 RMK A01 T01180118  RH  100%=      5-min Rain = 0
KAM3 241255Z 34001KT 12/12 A3001 RMK A01 T01190119  RH  100%=      5-min Rain = 0
KAM3 241256Z 32002KT 12/12 A3001 RMK A01 T01190120  RH  100%=      5-min Rain = 0
KAM3 241257Z 32002KT 12/12 A3001 RMK A01 T01200120  RH  100%=      5-min Rain = 0
KAM3 241258Z 30003KT 12/12 A3001 RMK A01 T01210121  RH  100%=      5-min Rain = 0
KAM3 241259Z 31002KT 12/12 A3001 RMK A01 T01210121  RH  100%=      5-min Rain = 0
KAM3 241300Z 31003KT 12/12 A3001 RMK A01 T01210121  RH  100%=      5-min Rain = 0
KAM3 241301Z 31003KT 12/12 A3002 RMK A01 T01210121  RH  100%=      5-min Rain = 0
KAM3 241302Z 30002KT 12/12 A3002 RMK A01 T01210121  RH  100%=      5-min Rain = 0
KAM3 241303Z 28001KT 12/12 A3002 RMK A01 T01210121  RH  100%=      5-min Rain = 0
KAM3 241304Z 21000KT 12/12 A3002 RMK A01 T01210122  RH  100%=      5-min Rain = 0
KAM3 241305Z 20001KT 12/12 A3002 RMK A01 T01230123  RH  100%=      5-min Rain = 0
KAM3 241306Z 21001KT 12/12 A3003 RMK A01 T01240124  RH  100%=      5-min Rain = 0
KAM3 241307Z 22001KT 12/12 A3003 RMK A01 T01240124  RH  100%=      5-min Rain = 0
KAM3 241308Z 22001KT 13/13 A3003 RMK A01 T01250125  RH  100%=      5-min Rain = 0
KAM3 241309Z 28000KT 13/13 A3002 RMK A01 T01270127  RH  100%=      5-min Rain = 0
KAM3 241310Z 30002KT 13/13 A3002 RMK A01 T01280128  RH  100%=      5-min Rain = 0
KAM3 241311Z 31002KT 13/13 A3002 RMK A01 T01280128  RH  100%=      5-min Rain = 0
KAM3 241312Z 31003KT 13/13 A3002 RMK A01 T01280128  RH  100%=      5-min Rain = 0
KAM3 241313Z 31004KT 13/13 A3002 RMK A01 T01270127  RH  100%=      5-min Rain = 0
KAM3 241314Z 32003KT 13/13 A3002 RMK A01 T01270127  RH  100%=      5-min Rain = 0
KAM3 241315Z 35002KT 13/13 A3002 RMK A01 T01270127  RH  100%=      5-min Rain = 0
KAM3 241316Z 35001KT 13/13 A3002 RMK A01 T01270127  RH  100%=      5-min Rain = 0
KAM3 241317Z 34001KT 13/13 A3003 RMK A01 T01290129  RH  100%=      5-min Rain = 0
KAM3 241318Z 31002KT 13/13 A3003 RMK A01 T01290129  RH  100%=      5-min Rain = 0
KAM3 241319Z 28002KT 13/13 A3003 RMK A01 T01300130  RH  100%=      5-min Rain = 0
KAM3 241320Z 28002KT 13/13 A3003 RMK A01 T01300130  RH  100%=      5-min Rain = 0
KAM3 241321Z 29002KT 13/13 A3003 RMK A01 T01290129  RH  100%=      5-min Rain = 0
KAM3 241322Z 29002KT 13/13 A3003 RMK A01 T01280129  RH  100%=      5-min Rain = 0
KAM3 241323Z 29003KT 13/13 A3003 RMK A01 T01280128  RH  100%=      5-min Rain = 0
KAM3 241324Z 30003KT 13/13 A3003 RMK A01 T01300130  RH  100%=      5-min Rain = 0
KAM3 241325Z 29002KT 13/13 A3003 RMK A01 T01310131  RH  100%=      5-min Rain = 0
KAM3 241326Z 33002KT 13/13 A3003 RMK A01 T01320132  RH  100%=      5-min Rain = 0
KAM3 241327Z 33002KT 13/13 A3003 RMK A01 T01320131  RH  100%=      5-min Rain = 0
KAM3 241328Z 32002KT 13/13 A3003 RMK A01 T01320132  RH  099%=      5-min Rain = 0
KAM3 241329Z 31002KT 13/13 A3003 RMK A01 T01330130  RH  098%=      5-min Rain = 0
KAM3 241330Z 31001KT 13/13 A3003 RMK A01 T01330127  RH  096%=      5-min Rain = 0
KAM3 241331Z 32001KT 13/12 A3003 RMK A01 T01340123  RH  093%=      5-min Rain = 0
KAM3 241332Z 34001KT 14/13 A3003 RMK A01 T01350131  RH  097%=      5-min Rain = 0
KAM3 241333Z 00002KT 14/13 A3003 RMK A01 T01370131  RH  096%=      5-min Rain = 0
KAM3 241334Z 02002KT 14/13 A3003 RMK A01 T01370125  RH  093%=      5-min Rain = 0
KAM3 241335Z 03002KT 14/13 A3003 RMK A01 T01350125  RH  094%=      5-min Rain = 0
KAM3 241336Z 01001KT 14/13 A3003 RMK A01 T01350129  RH  096%=      5-min Rain = 0
KAM3 241337Z 32001KT 14/13 A3003 RMK A01 T01350128  RH  096%=      5-min Rain = 0
KAM3 241338Z 27004KT 14/13 A3002 RMK A01 T01350134  RH  099%=      5-min Rain = 0
KAM3 241339Z 28004KT 14/14 A3003 RMK A01 T01360136  RH  100%=      5-min Rain = 0
KAM3 241340Z 29003KT 14/13 A3003 RMK A01 T01360134  RH  099%=      5-min Rain = 0
KAM3 241341Z 31004KT 14/13 A3003 RMK A01 T01350134  RH  100%=      5-min Rain = 0
KAM3 241342Z 31004KT 13/13 A3003 RMK A01 T01330133  RH  100%=      5-min Rain = 0
KAM3 241343Z 30004KT 13/13 A3003 RMK A01 T01320132  RH  100%=      5-min Rain = 0
KAM3 241344Z 29003KT 13/13 A3003 RMK A01 T01320132  RH  100%=      5-min Rain = 0
KAM3 241345Z 31003KT 13/13 A3003 RMK A01 T01330133  RH  100%=      5-min Rain = 0
KAM3 241346Z 32004KT 13/13 A3003 RMK A01 T01340134  RH  100%=      5-min Rain = 0
KAM3 241347Z 33004KT 14/13 A3003 RMK A01 T01350133  RH  098%=      5-min Rain = 0
KAM3 241348Z 30004KT 14/13 A3003 RMK A01 T01350132  RH  098%=      5-min Rain = 0
KAM3 241349Z 34003KT 14/13 A3003 RMK A01 T01350133  RH  099%=      5-min Rain = 0
KAM3 241350Z 35003KT 14/13 A3003 RMK A01 T01360133  RH  098%=      5-min Rain = 0
KAM3 241351Z 31002KT 14/14 A3003 RMK A01 T01370135  RH  098%=      5-min Rain = 0
KAM3 241352Z 31002KT 14/13 A3003 RMK A01 T01390132  RH  096%=      5-min Rain = 0
KAM3 241353Z 30003KT 14/13 A3003 RMK A01 T01400131  RH  094%=      5-min Rain = 0
KAM3 241354Z 30002KT 14/13 A3002 RMK A01 T01410130  RH  093%=      5-min Rain = 0
KAM3 241355Z 29001KT 14/13 A3002 RMK A01 T01410127  RH  092%=      5-min Rain = 0
KAM3 241356Z 00000KT 14/13 A3002 RMK A01 T01410125  RH  090%=      5-min Rain = 0
KAM3 241357Z 00000KT 14/13 A3002 RMK A01 T01430129  RH  092%=      5-min Rain = 0
KAM3 241358Z 27001KT 15/13 A3002 RMK A01 T01450130  RH  090%=      5-min Rain = 0
KAM3 241359Z 27002KT 15/13 A3002 RMK A01 T01460127  RH  089%=      5-min Rain = 0
KAM3 241400Z 26002KT 15/13 A3002 RMK A01 T01450132  RH  092%=      5-min Rain = 0
KAM3 241401Z 27002KT 14/13 A3002 RMK A01 T01440131  RH  092%=      5-min Rain = 0
KAM3 241402Z 31002KT 14/13 A3002 RMK A01 T01440133  RH  093%=      5-min Rain = 0
KAM3 241403Z 31002KT 14/12 A3002 RMK A01 T01430123  RH  088%=      5-min Rain = 0
KAM3 241404Z 32002KT 14/13 A3002 RMK A01 T01420126  RH  090%=      5-min Rain = 0
KAM3 241405Z 31001KT 14/13 A3002 RMK A01 T01420126  RH  090%=      5-min Rain = 0
KAM3 241406Z 30001KT 14/13 A3002 RMK A01 T01420130  RH  093%=      5-min Rain = 0
KAM3 241407Z 31001KT 14/13 A3002 RMK A01 T01420132  RH  094%=      5-min Rain = 0
KAM3 241408Z 29002KT 14/13 A3002 RMK A01 T01430131  RH  092%=      5-min Rain = 0
KAM3 241409Z 30003KT 14/13 A3002 RMK A01 T01440131  RH  092%=      5-min Rain = 0
KAM3 241410Z 31003KT 14/13 A3002 RMK A01 T01440127  RH  090%=      5-min Rain = 0
KAM3 241411Z 27002KT 14/13 A3002 RMK A01 T01420126  RH  090%=      5-min Rain = 0
KAM3 241412Z 20001KT 14/13 A3002 RMK A01 T01410130  RH  093%=      5-min Rain = 0
KAM3 241413Z 20002KT 14/13 A3002 RMK A01 T01410129  RH  092%=      5-min Rain = 0
KAM3 241414Z 19001KT 14/13 A3002 RMK A01 T01410127  RH  091%=      5-min Rain = 0
KAM3 241415Z 19001KT 14/13 A3002 RMK A01 T01410128  RH  092%=      5-min Rain = 0
KAM3 241416Z 21001KT 14/13 A3002 RMK A01 T01430128  RH  091%=      5-min Rain = 0
KAM3 241417Z 00000KT 15/13 A3002 RMK A01 T01450127  RH  089%=      5-min Rain = 0
KAM3 241418Z 33001KT 15/13 A3003 RMK A01 T01470129  RH  089%=      5-min Rain = 0
KAM3 241419Z 30001KT 15/13 A3003 RMK A01 T01490132  RH  090%=      5-min Rain = 0
KAM3 241420Z 29000KT 15/13 A3003 RMK A01 T01510128  RH  086%=      5-min Rain = 0
KAM3 241421Z 32000KT 15/13 A3002 RMK A01 T01510127  RH  085%=      5-min Rain = 0
KAM3 241422Z 31002KT 15/13 A3002 RMK A01 T01520127  RH  085%=      5-min Rain = 0
KAM3 241423Z 30002KT 15/13 A3002 RMK A01 T01520126  RH  084%=      5-min Rain = 0
KAM3 241424Z 26002KT 15/13 A3002 RMK A01 T01520128  RH  086%=      5-min Rain = 0
KAM3 241425Z 27003KT 15/13 A3002 RMK A01 T01520131  RH  087%=      5-min Rain = 0
KAM3 241426Z 24003KT 15/13 A3002 RMK A01 T01510129  RH  087%=      5-min Rain = 0
KAM3 241427Z 19002KT 15/13 A3002 RMK A01 T01500131  RH  088%=      5-min Rain = 0
KAM3 241428Z 20002KT 15/13 A3002 RMK A01 T01500130  RH  087%=      5-min Rain = 0
KAM3 241429Z 27002KT 15/13 A3002 RMK A01 T01500132  RH  089%=      5-min Rain = 0
KAM3 241430Z 27004KT 15/13 A3002 RMK A01 T01500134  RH  090%=      5-min Rain = 0
KAM3 241431Z 27004KT 15/13 A3002 RMK A01 T01500131  RH  088%=      5-min Rain = 0
KAM3 241432Z 26002KT 15/13 A3003 RMK A01 T01490130  RH  088%=      5-min Rain = 0
KAM3 241433Z 26002KT 15/13 A3003 RMK A01 T01480129  RH  088%=      5-min Rain = 0
KAM3 241434Z 29002KT 15/13 A3003 RMK A01 T01470131  RH  090%=      5-min Rain = 0
KAM3 241435Z 28001KT 15/13 A3002 RMK A01 T01470128  RH  088%=      5-min Rain = 0
KAM3 241436Z 31001KT 15/13 A3002 RMK A01 T01470130  RH  090%=      5-min Rain = 0
KAM3 241437Z 30001KT 15/13 A3002 RMK A01 T01470132  RH  091%=      5-min Rain = 0
KAM3 241438Z 30001KT 15/13 A3002 RMK A01 T01480132  RH  090%=      5-min Rain = 0
KAM3 241439Z 29001KT 15/13 A3002 RMK A01 T01490130  RH  089%=      5-min Rain = 0
KAM3 241440Z 27002KT 15/13 A3002 RMK A01 T01490129  RH  088%=      5-min Rain = 0
KAM3 241441Z 26001KT 15/13 A3002 RMK A01 T01490133  RH  090%=      5-min Rain = 0
KAM3 241442Z 27001KT 15/13 A3002 RMK A01 T01490131  RH  089%=      5-min Rain = 0
KAM3 241443Z 26001KT 15/13 A3002 RMK A01 T01490134  RH  091%=      5-min Rain = 0
KAM3 241444Z 25001KT 15/13 A3002 RMK A01 T01480132  RH  090%=      5-min Rain = 0
KAM3 241445Z 27002KT 15/14 A3002 RMK A01 T01480135  RH  092%=      5-min Rain = 0
KAM3 241446Z 26002KT 15/14 A3003 RMK A01 T01480135  RH  092%=      5-min Rain = 0
KAM3 241447Z 24001KT 15/14 A3003 RMK A01 T01490135  RH  091%=      5-min Rain = 0
KAM3 241448Z 23001KT 15/14 A3003 RMK A01 T01480135  RH  092%=      5-min Rain = 0
KAM3 241449Z 21001KT 15/13 A3003 RMK A01 T01480132  RH  090%=      5-min Rain = 0
KAM3 241450Z 26003KT 15/14 A3003 RMK A01 T01480137  RH  093%=      5-min Rain = 0
KAM3 241451Z 25003KT 15/13 A3003 RMK A01 T01490133  RH  090%=      5-min Rain = 0
KAM3 241452Z 25002KT 15/14 A3003 RMK A01 T01490140  RH  094%=      5-min Rain = 0
KAM3 241453Z 23002KT 15/14 A3003 RMK A01 T01500137  RH  092%=      5-min Rain = 0
KAM3 241454Z 27003KT 15/14 A3003 RMK A01 T01510138  RH  092%=      5-min Rain = 0
KAM3 241455Z 26003KT 15/14 A3003 RMK A01 T01510136  RH  091%=      5-min Rain = 0
KAM3 241456Z 28004KT 15/14 A3003 RMK A01 T01500138  RH  092%=      5-min Rain = 0
KAM3 241457Z 26003KT 15/13 A3003 RMK A01 T01500134  RH  090%=      5-min Rain = 0
KAM3 241458Z 26002KT 15/14 A3003 RMK A01 T01500137  RH  092%=      5-min Rain = 0
KAM3 241459Z 25004KT 15/14 A3003 RMK A01 T01500141  RH  095%=      5-min Rain = 0
KAM3 241500Z 26003KT 15/14 A3003 RMK A01 T01500137  RH  092%=      5-min Rain = 0
KAM3 241501Z 26003KT 15/13 A3003 RMK A01 T01510134  RH  090%=      5-min Rain = 0
KAM3 241502Z 24002KT 15/14 A3003 RMK A01 T01500136  RH  091%=      5-min Rain = 0
KAM3 241503Z 25002KT 15/14 A3003 RMK A01 T01500136  RH  091%=      5-min Rain = 0
KAM3 241504Z 26001KT 15/13 A3003 RMK A01 T01500133  RH  090%=      5-min Rain = 0
KAM3 241505Z 07000KT 15/14 A3002 RMK A01 T01500136  RH  091%=      5-min Rain = 0
KAM3 241506Z 33000KT 15/14 A3002 RMK A01 T01520139  RH  092%=      5-min Rain = 0
KAM3 241507Z 27002KT 15/14 A3002 RMK A01 T01540138  RH  090%=      5-min Rain = 0
KAM3 241508Z 27003KT 16/14 A3002 RMK A01 T01560135  RH  088%=      5-min Rain = 0
KAM3 241509Z 29003KT 16/14 A3002 RMK A01 T01570140  RH  090%=      5-min Rain = 0
KAM3 241510Z 30004KT 16/14 A3002 RMK A01 T01580141  RH  089%=      5-min Rain = 0
KAM3 241511Z 28003KT 16/14 A3002 RMK A01 T01590142  RH  090%=      5-min Rain = 0
KAM3 241512Z 28003KT 16/13 A3002 RMK A01 T01590133  RH  084%=      5-min Rain = 0
KAM3 241513Z 28002KT 16/13 A3002 RMK A01 T01570131  RH  085%=      5-min Rain = 0
KAM3 241514Z 27003KT 16/14 A3002 RMK A01 T01560141  RH  091%=      5-min Rain = 0
KAM3 241515Z 28005KT 16/14 A3002 RMK A01 T01560139  RH  090%=      5-min Rain = 0
KAM3 241516Z 28005KT 16/14 A3002 RMK A01 T01560136  RH  088%=      5-min Rain = 0
KAM3 241517Z 27004KT 16/14 A3002 RMK A01 T01550135  RH  088%=      5-min Rain = 0
KAM3 241518Z 26003KT 16/14 A3003 RMK A01 T01550137  RH  089%=      5-min Rain = 0
KAM3 241519Z 27002KT 16/14 A3002 RMK A01 T01550138  RH  090%=      5-min Rain = 0
KAM3 241520Z 26004KT 16/15 A3002 RMK A01 T01570145  RH  092%=      5-min Rain = 0
KAM3 241521Z 29004KT 16/14 A3002 RMK A01 T01590143  RH  090%=      5-min Rain = 0
KAM3 241522Z 28005KT 16/14 A3002 RMK A01 T01600144  RH  090%=      5-min Rain = 0
KAM3 241523Z 28005KT 16/14 A3002 RMK A01 T01600138  RH  086%=      5-min Rain = 0
KAM3 241524Z 26003KT 16/15 A3002 RMK A01 T01590148  RH  093%=      5-min Rain = 0
KAM3 241525Z 28002KT 16/14 A3002 RMK A01 T01600137  RH  086%=      5-min Rain = 0
KAM3 241526Z 31003KT 16/14 A3002 RMK A01 T01600141  RH  088%=      5-min Rain = 0
KAM3 241527Z 29003KT 16/14 A3002 RMK A01 T01610137  RH  086%=      5-min Rain = 0
KAM3 241528Z 29004KT 16/15 A3002 RMK A01 T01620145  RH  090%=      5-min Rain = 0
KAM3 241529Z 27005KT 16/15 A3002 RMK A01 T01640151  RH  092%=      5-min Rain = 0
KAM3 241530Z 27004KT 17/14 A3002 RMK A01 T01650140  RH  085%=      5-min Rain = 0
KAM3 241531Z 29004KT 16/14 A3002 RMK A01 T01630143  RH  088%=      5-min Rain = 0
KAM3 241532Z 29005KT 16/14 A3002 RMK A01 T01620141  RH  087%=      5-min Rain = 0
KAM3 241533Z 27003KT 16/15 A3002 RMK A01 T01630147  RH  091%=      5-min Rain = 0
KAM3 241534Z 28002KT 17/14 A3002 RMK A01 T01650144  RH  087%=      5-min Rain = 0
KAM3 241535Z 30005KT 17/14 A3002 RMK A01 T01660144  RH  087%=      5-min Rain = 0
KAM3 241536Z 28005KT 17/15 A3002 RMK A01 T01670147  RH  088%=      5-min Rain = 0
KAM3 241537Z 27006KT 17/15 A3002 RMK A01 T01680149  RH  088%=      5-min Rain = 0
KAM3 241538Z 25006KT 17/15 A3002 RMK A01 T01700145  RH  085%=      5-min Rain = 0
KAM3 241539Z 25004KT 17/14 A3002 RMK A01 T01680140  RH  083%=      5-min Rain = 0
KAM3 241540Z 27002KT 17/15 A3002 RMK A01 T01680150  RH  089%=      5-min Rain = 0
KAM3 241541Z 27005KT 17/14 A3002 RMK A01 T01690144  RH  085%=      5-min Rain = 0
KAM3 241542Z 26006KT 17/14 A3002 RMK A01 T01690143  RH  085%=      5-min Rain = 0
KAM3 241543Z 26005KT 17/14 A3002 RMK A01 T01680143  RH  085%=      5-min Rain = 0
KAM3 241544Z 25005KT 17/15 A3002 RMK A01 T01670145  RH  087%=      5-min Rain = 0
KAM3 241545Z 26003KT 17/15 A3002 RMK A01 T01670147  RH  088%=      5-min Rain = 0
KAM3 241546Z 27003KT 17/15 A3002 RMK A01 T01700154  RH  090%=      5-min Rain = 0
KAM3 241547Z 29003KT 17/14 A3002 RMK A01 T01720144  RH  084%=      5-min Rain = 0
KAM3 241548Z 32005KT 17/14 A3002 RMK A01 T01720144  RH  083%=      5-min Rain = 0
KAM3 241549Z 34003KT 17/14 A3003 RMK A01 T01720137  RH  080%=      5-min Rain = 0
KAM3 241550Z 30003KT 17/14 A3003 RMK A01 T01700139  RH  082%=      5-min Rain = 0
KAM3 241551Z 28003KT 17/14 A3003 RMK A01 T01690142  RH  084%=      5-min Rain = 0
KAM3 241552Z 29004KT 17/14 A3003 RMK A01 T01690141  RH  084%=      5-min Rain = 0
KAM3 241553Z 31002KT 17/14 A3003 RMK A01 T01690141  RH  083%=      5-min Rain = 0
KAM3 241554Z 33002KT 17/14 A3003 RMK A01 T01690136  RH  081%=      5-min Rain = 0
KAM3 241555Z 36003KT 17/14 A3003 RMK A01 T01690138  RH  082%=      5-min Rain = 0
KAM3 241556Z 01003KT 17/14 A3003 RMK A01 T01700143  RH  084%=      5-min Rain = 0
KAM3 241557Z 01001KT 17/14 A3003 RMK A01 T01710142  RH  083%=      5-min Rain = 0
KAM3 241558Z 24001KT 17/15 A3003 RMK A01 T01730148  RH  085%=      5-min Rain = 0
KAM3 241559Z 31002KT 18/15 A3003 RMK A01 T01760148  RH  084%=      5-min Rain = 0
KAM3 241600Z 28001KT 18/14 A3003 RMK A01 T01770142  RH  080%=      5-min Rain = 0
KAM3 241601Z 31004KT 18/14 A3003 RMK A01 T01780143  RH  080%=      5-min Rain = 0
KAM3 241602Z 33003KT 18/14 A3003 RMK A01 T01770141  RH  079%=      5-min Rain = 0
KAM3 241603Z 32004KT 18/14 A3003 RMK A01 T01760140  RH  080%=      5-min Rain = 0
KAM3 241604Z 31006KT 17/14 A3003 RMK A01 T01740141  RH  081%=      5-min Rain = 0
KAM3 241605Z 31006KT 17/14 A3003 RMK A01 T01730143  RH  082%=      5-min Rain = 0
KAM3 241606Z 31006KT 17/14 A3003 RMK A01 T01720137  RH  080%=      5-min Rain = 0
KAM3 241607Z 31007KT 17/15 A3003 RMK A01 T01710145  RH  085%=      5-min Rain = 0
KAM3 241608Z 30006KT 17/14 A3003 RMK A01 T01720141  RH  082%=      5-min Rain = 0
KAM3 241609Z 29004KT 17/14 A3003 RMK A01 T01730138  RH  080%=      5-min Rain = 0
KAM3 241610Z 29006KT 17/14 A3003 RMK A01 T01730141  RH  081%=      5-min Rain = 0
KAM3 241611Z 29005KT 17/14 A3003 RMK A01 T01730138  RH  080%=      5-min Rain = 0
KAM3 241612Z 29002KT 17/14 A3003 RMK A01 T01720135  RH  079%=      5-min Rain = 0
KAM3 241613Z 29002KT 17/14 A3003 RMK A01 T01710138  RH  081%=      5-min Rain = 0
KAM3 241614Z 26002KT 17/14 A3003 RMK A01 T01720139  RH  081%=      5-min Rain = 0
KAM3 241615Z 29002KT 17/15 A3003 RMK A01 T01740147  RH  084%=      5-min Rain = 0
KAM3 241616Z 27005KT 18/14 A3003 RMK A01 T01760143  RH  081%=      5-min Rain = 0
KAM3 241617Z 27007KT 18/14 A3003 RMK A01 T01760142  RH  080%=      5-min Rain = 0
KAM3 241618Z 28006KT 18/14 A3003 RMK A01 T01760144  RH  081%=      5-min Rain = 0
KAM3 241619Z 28008KT 18/15 A3003 RMK A01 T01770147  RH  083%=      5-min Rain = 0
KAM3 241620Z 28007KT 18/15 A3003 RMK A01 T01780147  RH  082%=      5-min Rain = 0
KAM3 241621Z 29007KT 18/15 A3003 RMK A01 T01790145  RH  080%=      5-min Rain = 0
KAM3 241622Z 29006KT 18/14 A3003 RMK A01 T01780141  RH  079%=      5-min Rain = 0
KAM3 241623Z 27006KT 18/14 A3003 RMK A01 T01780143  RH  080%=      5-min Rain = 0
KAM3 241624Z 28008KT 18/15 A3003 RMK A01 T01780150  RH  083%=      5-min Rain = 0
KAM3 241625Z 29006KT 18/14 A3003 RMK A01 T01790142  RH  079%=      5-min Rain = 0
KAM3 241626Z 29005KT 18/15 A3003 RMK A01 T01790146  RH  081%=      5-min Rain = 0
KAM3 241627Z 31008KT 18/15 A3003 RMK A01 T01790146  RH  081%=      5-min Rain = 0
KAM3 241628Z 30004KT 18/14 A3003 RMK A01 T01790140  RH  078%=      5-min Rain = 0
KAM3 241629Z 29007KT 18/14 A3003 RMK A01 T01780144  RH  081%=      5-min Rain = 0
KAM3 241630Z 31007KT 18/15 A3003 RMK A01 T01780151  RH  084%=      5-min Rain = 0
KAM3 241631Z 33007KT 18/14 A3003 RMK A01 T01800143  RH  079%=      5-min Rain = 0
KAM3 241632Z 35006KT 18/14 A3003 RMK A01 T01790142  RH  079%=      5-min Rain = 0
KAM3 241633Z 33005KT 18/14 A3003 RMK A01 T01780144  RH  081%=      5-min Rain = 0
KAM3 241634Z 28005KT 18/14 A3003 RMK A01 T01780144  RH  080%=      5-min Rain = 0
KAM3 241635Z 27006KT 18/14 A3003 RMK A01 T01780143  RH  080%=      5-min Rain = 0
KAM3 241636Z 30008KT 18/15 A3003 RMK A01 T01790147  RH  082%=      5-min Rain = 0
KAM3 241637Z 31005KT 18/15 A3003 RMK A01 T01800148  RH  081%=      5-min Rain = 0
KAM3 241638Z 30007KT 18/15 A3003 RMK A01 T01810148  RH  081%=      5-min Rain = 0
KAM3 241639Z 29006KT 18/14 A3003 RMK A01 T01810142  RH  078%=      5-min Rain = 0
KAM3 241640Z 31006KT 18/14 A3003 RMK A01 T01800143  RH  079%=      5-min Rain = 0
KAM3 241641Z 31006KT 18/14 A3003 RMK A01 T01790143  RH  079%=      5-min Rain = 0
KAM3 241642Z 28005KT 18/14 A3003 RMK A01 T01790143  RH  080%=      5-min Rain = 0
KAM3 241643Z 27006KT 18/14 A3003 RMK A01 T01780143  RH  080%=      5-min Rain = 0
KAM3 241644Z 28006KT 18/15 A3003 RMK A01 T01780146  RH  081%=      5-min Rain = 0
KAM3 241645Z 25007KT 18/14 A3003 RMK A01 T01800144  RH  080%=      5-min Rain = 0
KAM3 241646Z 24003KT 18/14 A3003 RMK A01 T01790143  RH  079%=      5-min Rain = 0
KAM3 241647Z 30005KT 18/15 A3003 RMK A01 T01800150  RH  083%=      5-min Rain = 0
KAM3 241648Z 27003KT 18/14 A3003 RMK A01 T01810139  RH  076%=      5-min Rain = 0
KAM3 241649Z 27005KT 18/15 A3003 RMK A01 T01810148  RH  081%=      5-min Rain = 0
KAM3 241650Z 28007KT 18/14 A3002 RMK A01 T01810142  RH  078%=      5-min Rain = 0
KAM3 241651Z 25005KT 18/15 A3002 RMK A01 T01810147  RH  081%=      5-min Rain = 0
KAM3 241652Z 26004KT 18/15 A3003 RMK A01 T01820145  RH  079%=      5-min Rain = 0
KAM3 241653Z 24004KT 18/15 A3003 RMK A01 T01830146  RH  079%=      5-min Rain = 0
KAM3 241654Z 24005KT 19/14 A3003 RMK A01 T01850144  RH  077%=      5-min Rain = 0
KAM3 241655Z 24006KT 18/15 A3003 RMK A01 T01840145  RH  078%=      5-min Rain = 0
KAM3 241656Z 29005KT 19/15 A3003 RMK A01 T01850146  RH  078%=      5-min Rain = 0
KAM3 241657Z 31002KT 18/14 A3003 RMK A01 T01840140  RH  075%=      5-min Rain = 0
KAM3 241658Z 27004KT 18/15 A3003 RMK A01 T01840146  RH  079%=      5-min Rain = 0
KAM3 241659Z 25006KT 19/15 A3003 RMK A01 T01850150  RH  080%=      5-min Rain = 0
KAM3 241700Z 23004KT 19/15 A3003 RMK A01 T01880145  RH  076%=      5-min Rain = 0
KAM3 241701Z 24002KT 19/15 A3003 RMK A01 T01880148  RH  078%=      5-min Rain = 0
KAM3 241702Z 28007KT 19/15 A3003 RMK A01 T01890147  RH  077%=      5-min Rain = 0
KAM3 241703Z 28006KT 19/15 A3003 RMK A01 T01890146  RH  076%=      5-min Rain = 0
KAM3 241704Z 29006KT 19/14 A3003 RMK A01 T01880141  RH  074%=      5-min Rain = 0
KAM3 241705Z 28005KT 19/14 A3003 RMK A01 T01860139  RH  074%=      5-min Rain = 0
KAM3 241706Z 27004KT 18/14 A3003 RMK A01 T01840139  RH  075%=      5-min Rain = 0
KAM3 241707Z 27001KT 18/14 A3003 RMK A01 T01830138  RH  075%=      5-min Rain = 0
KAM3 241708Z 30002KT 18/14 A3003 RMK A01 T01830139  RH  075%=      5-min Rain = 0
KAM3 241709Z 30006KT 18/15 A3003 RMK A01 T01840148  RH  080%=      5-min Rain = 0
KAM3 241710Z 30006KT 19/14 A3002 RMK A01 T01860144  RH  076%=      5-min Rain = 0
KAM3 241711Z 30007KT 19/15 A3002 RMK A01 T01860145  RH  077%=      5-min Rain = 0
KAM3 241712Z 32003KT 19/14 A3002 RMK A01 T01860143  RH  076%=      5-min Rain = 0
KAM3 241713Z 31007KT 19/15 A3002 RMK A01 T01860147  RH  078%=      5-min Rain = 0
KAM3 241714Z 31007KT 19/14 A3002 RMK A01 T01860143  RH  076%=      5-min Rain = 0
KAM3 241715Z 30005KT 19/14 A3002 RMK A01 T01860143  RH  076%=      5-min Rain = 0
KAM3 241716Z 31004KT 19/15 A3002 RMK A01 T01860148  RH  078%=      5-min Rain = 0
KAM3 241717Z 32003KT 19/14 A3002 RMK A01 T01870143  RH  076%=      5-min Rain = 0
KAM3 241718Z 30006KT 19/15 A3002 RMK A01 T01870152  RH  080%=      5-min Rain = 0
KAM3 241719Z 29005KT 19/15 A3002 RMK A01 T01900149  RH  077%=      5-min Rain = 0
KAM3 241720Z 29006KT 19/15 A3002 RMK A01 T01900146  RH  075%=      5-min Rain = 0
KAM3 241721Z 29005KT 19/15 A3002 RMK A01 T01890148  RH  077%=      5-min Rain = 0
KAM3 241722Z 28004KT 19/15 A3002 RMK A01 T01900145  RH  075%=      5-min Rain = 0
KAM3 241723Z 29004KT 19/14 A3002 RMK A01 T01900140  RH  073%=      5-min Rain = 0
KAM3 241724Z 29003KT 19/14 A3002 RMK A01 T01880138  RH  073%=      5-min Rain = 0
KAM3 241725Z 32004KT 19/15 A3002 RMK A01 T01870145  RH  077%=      5-min Rain = 0
KAM3 241726Z 31007KT 19/15 A3002 RMK A01 T01890154  RH  080%=      5-min Rain = 0
KAM3 241727Z 29006KT 19/15 A3002 RMK A01 T01910147  RH  075%=      5-min Rain = 0
KAM3 241728Z 29005KT 19/15 A3002 RMK A01 T01920145  RH  074%=      5-min Rain = 0
KAM3 241729Z 30007KT 19/15 A3002 RMK A01 T01910145  RH  075%=      5-min Rain = 0
KAM3 241730Z 31006KT 19/15 A3002 RMK A01 T01900147  RH  076%=      5-min Rain = 0
KAM3 241731Z 32005KT 19/15 A3002 RMK A01 T01910149  RH  077%=      5-min Rain = 0
KAM3 241732Z 36002KT 19/15 A3002 RMK A01 T01910146  RH  075%=      5-min Rain = 0
KAM3 241733Z 35004KT 19/15 A3002 RMK A01 T01910148  RH  076%=      5-min Rain = 0
KAM3 241734Z 31004KT 19/15 A3002 RMK A01 T01930151  RH  077%=      5-min Rain = 0
KAM3 241735Z 31004KT 19/15 A3001 RMK A01 T01940146  RH  074%=      5-min Rain = 0
KAM3 241736Z 30004KT 19/15 A3001 RMK A01 T01930150  RH  076%=      5-min Rain = 0
KAM3 241737Z 30007KT 19/15 A3001 RMK A01 T01940151  RH  076%=      5-min Rain = 0
KAM3 241738Z 28008KT 20/15 A3001 RMK A01 T01950150  RH  075%=      5-min Rain = 0
KAM3 241739Z 30007KT 20/15 A3001 RMK A01 T01960153  RH  076%=      5-min Rain = 0
KAM3 241740Z 30006KT 20/15 A3001 RMK A01 T01960147  RH  074%=      5-min Rain = 0
KAM3 241741Z 29005KT 20/15 A3001 RMK A01 T01950147  RH  074%=      5-min Rain = 0
KAM3 241742Z 30004KT 19/15 A3001 RMK A01 T01940149  RH  075%=      5-min Rain = 0
KAM3 241743Z 31005KT 19/15 A3001 RMK A01 T01940149  RH  075%=      5-min Rain = 0
KAM3 241744Z 31004KT 19/14 A3001 RMK A01 T01940144  RH  073%=      5-min Rain = 0
KAM3 241745Z 31003KT 19/14 A3001 RMK A01 T01940144  RH  073%=      5-min Rain = 0
KAM3 241746Z 34001KT 19/14 A3001 RMK A01 T01930143  RH  073%=      5-min Rain = 0
KAM3 241747Z 29002KT 19/15 A3001 RMK A01 T01930145  RH  073%=      5-min Rain = 0
KAM3 241748Z 31006KT 20/15 A3001 RMK A01 T01950154  RH  077%=      5-min Rain = 0
KAM3 241749Z 32006KT 20/15 A3001 RMK A01 T01960149  RH  074%=      5-min Rain = 0
KAM3 241750Z 31007KT 20/15 A3001 RMK A01 T01960153  RH  076%=      5-min Rain = 0
KAM3 241751Z 31005KT 20/15 A3001 RMK A01 T01970149  RH  074%=      5-min Rain = 0
KAM3 241752Z 33005KT 20/15 A3001 RMK A01 T01960152  RH  076%=      5-min Rain = 0
KAM3 241753Z 31003KT 20/15 A3001 RMK A01 T01960150  RH  075%=      5-min Rain = 0
KAM3 241754Z 31002KT 20/15 A3001 RMK A01 T01950147  RH  074%=      5-min Rain = 0
KAM3 241755Z 30007KT 20/15 A3001 RMK A01 T01950153  RH  077%=      5-min Rain = 0
KAM3 241756Z 30006KT 20/15 A3001 RMK A01 T01950151  RH  076%=      5-min Rain = 0
KAM3 241757Z 31006KT 19/16 A3001 RMK A01 T01940156  RH  078%=      5-min Rain = 0
KAM3 241758Z 32006KT 20/16 A3001 RMK A01 T01950156  RH  078%=      5-min Rain = 0
KAM3 241759Z 31004KT 20/15 A3001 RMK A01 T01950151  RH  076%=      5-min Rain = 0
KAM3 241800Z 35003KT 19/16 A3001 RMK A01 T01940156  RH  078%=      5-min Rain = 0
KAM3 241801Z 02002KT 19/16 A3001 RMK A01 T01940155  RH  078%=      5-min Rain = 0
KAM3 241802Z 34003G8KT 20/17 A3001 RMK A01 T01960165  RH  082%=      5-min Rain = 0
KAM3 241803Z 32007KT 20/16 A3001 RMK A01 T01980159  RH  078%=      5-min Rain = 0
KAM3 241804Z 32006KT 20/16 A3001 RMK A01 T01980155  RH  076%=      5-min Rain = 0
KAM3 241805Z 33006KT 20/16 A3001 RMK A01 T01960160  RH  080%=      5-min Rain = 0
KAM3 241806Z 35003KT 20/15 A3001 RMK A01 T01970153  RH  076%=      5-min Rain = 0
KAM3 241807Z 31007KT 20/16 A3001 RMK A01 T01970161  RH  080%=      5-min Rain = 0
KAM3 241808Z 32006KT 20/16 A3001 RMK A01 T01970159  RH  079%=      5-min Rain = 0
KAM3 241809Z 32005KT 20/16 A3001 RMK A01 T01980157  RH  077%=      5-min Rain = 0
KAM3 241810Z 33003KT 20/16 A3001 RMK A01 T01980156  RH  077%=      5-min Rain = 0
KAM3 241811Z 33004KT 20/16 A3001 RMK A01 T01980161  RH  079%=      5-min Rain = 0
KAM3 241812Z 34003KT 20/16 A3001 RMK A01 T01980155  RH  076%=      5-min Rain = 0
KAM3 241813Z 35002KT 20/15 A3001 RMK A01 T01980153  RH  075%=      5-min Rain = 0
KAM3 241814Z 31001KT 20/16 A3001 RMK A01 T01980158  RH  077%=      5-min Rain = 0
KAM3 241815Z 28004KT 20/17 A3001 RMK A01 T02000166  RH  081%=      5-min Rain = 0
KAM3 241816Z 27003KT 20/16 A30 RMK A01 T02020159  RH  076%=      5-min Rain = 0
KAM3 241817Z 27003KT 20/15 A30 RMK A01 T02020154  RH  074%=      5-min Rain = 0
KAM3 241818Z 30005KT 20/16 A30 RMK A01 T02020161  RH  078%=      5-min Rain = 0
KAM3 241819Z 30006KT 20/16 A30 RMK A01 T02010161  RH  078%=      5-min Rain = 0
KAM3 241820Z 29007KT 20/16 A30 RMK A01 T02020163  RH  078%=      5-min Rain = 0
KAM3 241821Z 29005KT 20/16 A30 RMK A01 T02010161  RH  077%=      5-min Rain = 0
KAM3 241822Z 29001KT 20/16 A30 RMK A01 T02000157  RH  076%=      5-min Rain = 0
KAM3 241823Z 34002KT 20/16 A30 RMK A01 T02000161  RH  078%=      5-min Rain = 0
KAM3 241824Z 33004KT 20/16 A30 RMK A01 T02010161  RH  078%=      5-min Rain = 0
KAM3 241825Z 31005KT 20/17 A30 RMK A01 T02020166  RH  080%=      5-min Rain = 0
KAM3 241826Z 31006KT 20/17 A30 RMK A01 T02040168  RH  080%=      5-min Rain = 0
KAM3 241827Z 29006KT 21/16 A30 RMK A01 T02050163  RH  077%=      5-min Rain = 0
KAM3 241828Z 29005KT 21/17 A30 RMK A01 T02050165  RH  078%=      5-min Rain = 0
KAM3 241829Z 29004KT 21/16 A30 RMK A01 T02050162  RH  077%=      5-min Rain = 0
KAM3 241830Z 29002KT 20/16 A30 RMK A01 T02040155  RH  074%=      5-min Rain = 0
KAM3 241831Z 35005KT 20/16 A30 RMK A01 T02020161  RH  077%=      5-min Rain = 0
KAM3 241832Z 34006KT 20/16 A30 RMK A01 T02020163  RH  078%=      5-min Rain = 0
KAM3 241833Z 36004KT 20/16 A30 RMK A01 T02020161  RH  077%=      5-min Rain = 0
KAM3 241834Z 36003KT 20/16 A30 RMK A01 T02020159  RH  076%=      5-min Rain = 0
KAM3 241835Z 30004KT 20/17 A30 RMK A01 T02030167  RH  080%=      5-min Rain = 0
KAM3 241836Z 33005KT 21/17 A30 RMK A01 T02050171  RH  081%=      5-min Rain = 0
KAM3 241837Z 32004KT 21/17 A30 RMK A01 T02060166  RH  078%=      5-min Rain = 0
KAM3 241838Z 31001KT 21/16 A30 RMK A01 T02060159  RH  074%=      5-min Rain = 0
KAM3 241839Z 32002KT 21/16 A30 RMK A01 T02070163  RH  076%=      5-min Rain = 0
KAM3 241840Z 29003KT 21/17 A30 RMK A01 T02070171  RH  080%=      5-min Rain = 0
KAM3 241841Z 25002KT 21/17 A30 RMK A01 T02090167  RH  077%=      5-min Rain = 0
KAM3 241842Z 19002KT 21/16 A2999 RMK A01 T02090162  RH  075%=      5-min Rain = 0
KAM3 241843Z 13002KT 21/16 A2999 RMK A01 T02080160  RH  074%=      5-min Rain = 0
KAM3 241844Z 07001KT 21/16 A2999 RMK A01 T02080164  RH  076%=      5-min Rain = 0
KAM3 241845Z 06001KT 21/16 A2999 RMK A01 T02090161  RH  074%=      5-min Rain = 0
KAM3 241846Z 30001KT 21/16 A2999 RMK A01 T02100164  RH  075%=      5-min Rain = 0
KAM3 241847Z 32003KT 21/17 A2999 RMK A01 T02110169  RH  077%=      5-min Rain = 0
KAM3 241848Z 29002KT 21/17 A2999 RMK A01 T02120170  RH  077%=      5-min Rain = 0
KAM3 241849Z 33002KT 21/17 A2999 RMK A01 T02120170  RH  077%=      5-min Rain = 0
KAM3 241850Z 35003KT 21/17 A2999 RMK A01 T02130166  RH  075%=      5-min Rain = 0
KAM3 241851Z 32003KT 21/17 A2999 RMK A01 T02140168  RH  075%=      5-min Rain = 0
KAM3 241852Z 33003KT 21/17 A2999 RMK A01 T02130165  RH  074%=      5-min Rain = 0
KAM3 241853Z 01002KT 21/16 A2999 RMK A01 T02130164  RH  074%=      5-min Rain = 0
KAM3 241854Z 36003KT 21/17 A2999 RMK A01 T02120169  RH  076%=      5-min Rain = 0
KAM3 241855Z 22002KT 21/17 A2999 RMK A01 T02130165  RH  074%=      5-min Rain = 0
KAM3 241856Z 24002KT 21/16 A2999 RMK A01 T02140164  RH  073%=      5-min Rain = 0
KAM3 241857Z 21003KT 22/17 A2999 RMK A01 T02160165  RH  073%=      5-min Rain = 0
KAM3 241858Z 19005KT 22/16 A2999 RMK A01 T02170161  RH  071%=      5-min Rain = 0
KAM3 241859Z 23005KT 22/17 A2998 RMK A01 T02180166  RH  072%=      5-min Rain = 0
KAM3 241900Z 23004KT 22/16 A2998 RMK A01 T02200161  RH  070%=      5-min Rain = 0
KAM3 241901Z 22002KT 22/16 A2998 RMK A01 T02200163  RH  070%=      5-min Rain = 0
KAM3 241902Z 24004KT 22/17 A2998 RMK A01 T02210170  RH  073%=      5-min Rain = 0
KAM3 241903Z 24006KT 22/17 A2998 RMK A01 T02230169  RH  071%=      5-min Rain = 0
KAM3 241904Z 23007KT 22/17 A2998 RMK A01 T02240168  RH  070%=      5-min Rain = 0
KAM3 241905Z 23006KT 23/17 A2998 RMK A01 T02250170  RH  071%=      5-min Rain = 0
KAM3 241906Z 21007KT 23/17 A2998 RMK A01 T02250167  RH  070%=      5-min Rain = 0
KAM3 241907Z 23005KT 23/16 A2998 RMK A01 T02250161  RH  067%=      5-min Rain = 0
KAM3 241908Z 26001KT 22/16 A2998 RMK A01 T02230161  RH  068%=      5-min Rain = 0
KAM3 241909Z 22002KT 22/17 A2998 RMK A01 T02220168  RH  071%=      5-min Rain = 0
KAM3 241910Z 22003KT 22/16 A2998 RMK A01 T02230162  RH  068%=      5-min Rain = 0
KAM3 241911Z 22002KT 22/16 A2998 RMK A01 T02230164  RH  069%=      5-min Rain = 0
KAM3 241912Z 22003KT 22/16 A2997 RMK A01 T02240164  RH  069%=      5-min Rain = 0
KAM3 241913Z 21006KT 23/17 A2997 RMK A01 T02250166  RH  069%=      5-min Rain = 0
KAM3 241914Z 20005KT 23/17 A2997 RMK A01 T02260165  RH  069%=      5-min Rain = 0
KAM3 241915Z 16003KT 23/16 A2997 RMK A01 T02270162  RH  067%=      5-min Rain = 0
KAM3 241916Z 19003KT 23/16 A2997 RMK A01 T02270164  RH  067%=      5-min Rain = 0
KAM3 241917Z 22004KT 23/17 A2997 RMK A01 T02280166  RH  068%=      5-min Rain = 0
KAM3 241918Z 20005KT 23/17 A2997 RMK A01 T02290166  RH  068%=      5-min Rain = 0
KAM3 241919Z 21005KT 23/16 A2997 RMK A01 T02290162  RH  066%=      5-min Rain = 0
KAM3 241920Z 23006KT 23/17 A2997 RMK A01 T02290168  RH  069%=      5-min Rain = 0
KAM3 241921Z 23006KT 23/16 A2997 RMK A01 T02290163  RH  066%=      5-min Rain = 0
KAM3 241922Z 22002KT 23/16 A2997 RMK A01 T02290159  RH  065%=      5-min Rain = 0
KAM3 241923Z 17002KT 23/17 A2997 RMK A01 T02290171  RH  070%=      5-min Rain = 0
KAM3 241924Z 13006KT 23/17 A2997 RMK A01 T02310165  RH  067%=      5-min Rain = 0
KAM3 241925Z 12005KT 23/16 A2997 RMK A01 T02310164  RH  066%=      5-min Rain = 0
KAM3 241926Z 17005KT 23/17 A2997 RMK A01 T02300167  RH  068%=      5-min Rain = 0
KAM3 241927Z 16004KT 23/16 A2997 RMK A01 T02300162  RH  066%=      5-min Rain = 0
KAM3 241928Z 17001KT 23/16 A2997 RMK A01 T02300164  RH  066%=      5-min Rain = 0
KAM3 241929Z 17003KT 23/17 A2997 RMK A01 T02300165  RH  067%=      5-min Rain = 0
KAM3 241930Z 15005KT 23/16 A2997 RMK A01 T02310164  RH  066%=      5-min Rain = 0
KAM3 241931Z 15004KT 23/17 A2996 RMK A01 T02310166  RH  067%=      5-min Rain = 0
KAM3 241932Z 14004KT 23/16 A2996 RMK A01 T02320164  RH  066%=      5-min Rain = 0
KAM3 241933Z 15003KT 23/16 A2996 RMK A01 T02310162  RH  065%=      5-min Rain = 0
KAM3 241934Z 15001KT 23/16 A2996 RMK A01 T02300161  RH  065%=      5-min Rain = 0
KAM3 241935Z 16001KT 23/16 A2996 RMK A01 T02300164  RH  066%=      5-min Rain = 0
KAM3 241936Z 13003KT 23/17 A2996 RMK A01 T02310169  RH  068%=      5-min Rain = 0
KAM3 241937Z 10002KT 23/17 A2996 RMK A01 T02330173  RH  069%=      5-min Rain = 0
KAM3 241938Z 10005KT 23/17 A2996 RMK A01 T02340166  RH  066%=      5-min Rain = 0
KAM3 241939Z 11005KT 23/17 A2996 RMK A01 T02340165  RH  065%=      5-min Rain = 0
KAM3 241940Z 11005KT 23/17 A2996 RMK A01 T02340166  RH  066%=      5-min Rain = 0
KAM3 241941Z 11004KT 23/17 A2996 RMK A01 T02330166  RH  066%=      5-min Rain = 0
KAM3 241942Z 10005KT 23/16 A2996 RMK A01 T02340162  RH  064%=      5-min Rain = 0
KAM3 241943Z 10004KT 23/16 A2996 RMK A01 T02330162  RH  064%=      5-min Rain = 0
KAM3 241944Z 08003KT 23/17 A2996 RMK A01 T02320165  RH  066%=      5-min Rain = 0
KAM3 241945Z 09003KT 23/16 A2996 RMK A01 T02320164  RH  065%=      5-min Rain = 0
KAM3 241946Z 13001KT 23/16 A2996 RMK A01 T02330163  RH  065%=      5-min Rain = 0
KAM3 241947Z 17002KT 23/16 A2996 RMK A01 T02340164  RH  065%=      5-min Rain = 0
KAM3 241948Z 16002KT 24/17 A2996 RMK A01 T02350168  RH  066%=      5-min Rain = 0
KAM3 241949Z 13004KT 24/17 A2996 RMK A01 T02370172  RH  067%=      5-min Rain = 0
KAM3 241950Z 15004KT 24/17 A2996 RMK A01 T02380171  RH  066%=      5-min Rain = 0
KAM3 241951Z 19002KT 24/17 A2996 RMK A01 T02390170  RH  065%=      5-min Rain = 0
KAM3 241952Z 21001KT 24/17 A2996 RMK A01 T02390170  RH  065%=      5-min Rain = 0
KAM3 241953Z 19004KT 24/17 A2996 RMK A01 T02400171  RH  065%=      5-min Rain = 0
KAM3 241954Z 20005KT 24/16 A2996 RMK A01 T02410163  RH  062%=      5-min Rain = 0
KAM3 241955Z 20006KT 24/17 A2996 RMK A01 T02400165  RH  063%=      5-min Rain = 0
KAM3 241956Z 19005KT 24/17 A2996 RMK A01 T02400169  RH  064%=      5-min Rain = 0
KAM3 241957Z 19005KT 24/17 A2996 RMK A01 T02410168  RH  063%=      5-min Rain = 0
KAM3 241958Z 16004KT 24/17 A2996 RMK A01 T02420167  RH  063%=      5-min Rain = 0
KAM3 241959Z 19006KT 24/17 A2996 RMK A01 T02420168  RH  064%=      5-min Rain = 0
KAM3 242000Z 17006KT 24/17 A2996 RMK A01 T02430173  RH  065%=      5-min Rain = 0
KAM3 242001Z 16008KT 25/18 A2996 RMK A01 T02450176  RH  066%=      5-min Rain = 0
KAM3 242002Z 18005KT 25/18 A2996 RMK A01 T02470179  RH  066%=      5-min Rain = 0
KAM3 242003Z 19006KT 25/18 A2996 RMK A01 T02500177  RH  064%=      5-min Rain = 0
KAM3 242004Z 18005KT 25/17 A2996 RMK A01 T02500172  RH  062%=      5-min Rain = 0
KAM3 242005Z 19006KT 25/18 A2996 RMK A01 T02500176  RH  064%=      5-min Rain = 0
KAM3 242006Z 17006KT 25/18 A2995 RMK A01 T02490176  RH  064%=      5-min Rain = 0
KAM3 242007Z 16003KT 25/18 A2995 RMK A01 T02490177  RH  064%=      5-min Rain = 0
KAM3 242008Z 16003KT 25/17 A2995 RMK A01 T02490169  RH  061%=      5-min Rain = 0
KAM3 242009Z 11001KT 25/17 A2995 RMK A01 T02480169  RH  061%=      5-min Rain = 0
KAM3 242010Z 21002KT 25/18 A2995 RMK A01 T02480175  RH  064%=      5-min Rain = 0
KAM3 242011Z 17004KT 25/17 A2995 RMK A01 T02480171  RH  062%=      5-min Rain = 0
KAM3 242012Z 20004KT 25/17 A2995 RMK A01 T02480167  RH  061%=      5-min Rain = 0
KAM3 242013Z 18002KT 25/16 A2994 RMK A01 T02460164  RH  060%=      5-min Rain = 0
KAM3 242014Z 22004KT 25/17 A2994 RMK A01 T02450171  RH  064%=      5-min Rain = 0
KAM3 242015Z 19003KT 25/17 A2994 RMK A01 T02450166  RH  061%=      5-min Rain = 0
KAM3 242016Z 20003KT 25/17 A2994 RMK A01 T02450172  RH  064%=      5-min Rain = 0
KAM3 242017Z 22002KT 25/17 A2994 RMK A01 T02460170  RH  063%=      5-min Rain = 0
KAM3 242018Z 24003KT 25/17 A2994 RMK A01 T02470171  RH  063%=      5-min Rain = 0
KAM3 242019Z 19003KT 25/17 A2994 RMK A01 T02480169  RH  061%=      5-min Rain = 0
KAM3 242020Z 23003KT 25/17 A2994 RMK A01 T02490173  RH  063%=      5-min Rain = 0
KAM3 242021Z 28003KT 25/17 A2994 RMK A01 T02500170  RH  061%=      5-min Rain = 0
KAM3 242022Z 22008KT 25/18 A2994 RMK A01 T02500178  RH  064%=      5-min Rain = 0
KAM3 242023Z 22008KT 25/17 A2993 RMK A01 T02520173  RH  061%=      5-min Rain = 0
KAM3 242024Z 20009KT 25/17 A2994 RMK A01 T02520174  RH  062%=      5-min Rain = 0
KAM3 242025Z 20006KT 25/17 A2994 RMK A01 T02520169  RH  060%=      5-min Rain = 0
KAM3 242026Z 19005KT 25/18 A2994 RMK A01 T02540179  RH  063%=      5-min Rain = 0
KAM3 242027Z 20005KT 26/18 A2993 RMK A01 T02560176  RH  061%=      5-min Rain = 0
KAM3 242028Z 19004KT 26/19 A2993 RMK A01 T02570187  RH  065%=      5-min Rain = 0
KAM3 242029Z 16003KT 26/18 A2993 RMK A01 T02600177  RH  060%=      5-min Rain = 0
KAM3 242030Z 23003KT 26/18 A2993 RMK A01 T02600177  RH  060%=      5-min Rain = 0
KAM3 242031Z 23006KT 26/18 A2993 RMK A01 T02600176  RH  060%=      5-min Rain = 0
KAM3 242032Z 24005KT 26/18 A2993 RMK A01 T02580175  RH  060%=      5-min Rain = 0
KAM3 242033Z 21006KT 26/17 A2993 RMK A01 T02560174  RH  060%=      5-min Rain = 0
KAM3 242034Z 21006KT 26/17 A2993 RMK A01 T02560173  RH  060%=      5-min Rain = 0
KAM3 242035Z 20003KT 26/17 A2992 RMK A01 T02560170  RH  059%=      5-min Rain = 0
KAM3 242036Z 19007KT 26/17 A2992 RMK A01 T02550169  RH  059%=      5-min Rain = 0
KAM3 242037Z 20008KT 26/17 A2992 RMK A01 T02550171  RH  060%=      5-min Rain = 0
KAM3 242038Z 17008KT 26/17 A2992 RMK A01 T02560170  RH  059%=      5-min Rain = 0
KAM3 242039Z 15008KT 26/16 A2992 RMK A01 T02570163  RH  056%=      5-min Rain = 0
KAM3 242040Z 17006KT 26/16 A2993 RMK A01 T02570164  RH  056%=      5-min Rain = 0
KAM3 242041Z 19006KT 26/17 A2993 RMK A01 T02570166  RH  057%=      5-min Rain = 0
KAM3 242042Z 20006KT 26/17 A2993 RMK A01 T02570168  RH  058%=      5-min Rain = 0
KAM3 242043Z 20005KT 26/16 A2993 RMK A01 T02580162  RH  055%=      5-min Rain = 0
KAM3 242044Z 18004KT 26/16 A2993 RMK A01 T02580163  RH  056%=      5-min Rain = 0
KAM3 242045Z 20006KT 26/17 A2993 RMK A01 T02580174  RH  060%=      5-min Rain = 0
KAM3 242046Z 17008KT 26/17 A2993 RMK A01 T02600174  RH  059%=      5-min Rain = 0
KAM3 242047Z 17006KT 26/17 A2993 RMK A01 T02620174  RH  059%=      5-min Rain = 0
KAM3 242048Z 16005KT 26/17 A2993 RMK A01 T02620169  RH  057%=      5-min Rain = 0
KAM3 242049Z 17008KT 26/18 A2993 RMK A01 T02620175  RH  059%=      5-min Rain = 0
KAM3 242050Z 17008KT 26/17 A2993 RMK A01 T02630167  RH  056%=      5-min Rain = 0
KAM3 242051Z 19005KT 26/16 A2993 RMK A01 T02600163  RH  055%=      5-min Rain = 0
KAM3 242052Z 20005KT 26/17 A2993 RMK A01 T02580168  RH  058%=      5-min Rain = 0
KAM3 242053Z 20004KT 26/17 A2993 RMK A01 T02580166  RH  057%=      5-min Rain = 0
KAM3 242054Z 21004KT 26/17 A2993 RMK A01 T02600170  RH  058%=      5-min Rain = 0
KAM3 242055Z 14003KT 26/18 A2993 RMK A01 T02610175  RH  059%=      5-min Rain = 0
KAM3 242056Z 09004KT 26/18 A2993 RMK A01 T02640175  RH  058%=      5-min Rain = 0
KAM3 242057Z 09006KT 26/18 A2993 RMK A01 T02640175  RH  058%=      5-min Rain = 0
KAM3 242058Z 09007KT 26/18 A2993 RMK A01 T02640178  RH  059%=      5-min Rain = 0
KAM3 242059Z 10007KT 26/18 A2992 RMK A01 T02630181  RH  061%=      5-min Rain = 0
KAM3 242100Z 11005KT 26/18 A2992 RMK A01 T02630175  RH  058%=      5-min Rain = 0
KAM3 242101Z 10005KT 26/17 A2992 RMK A01 T02620172  RH  058%=      5-min Rain = 0
KAM3 242102Z 08004KT 26/17 A2992 RMK A01 T02610171  RH  058%=      5-min Rain = 0
KAM3 242103Z 13004KT 26/18 A2992 RMK A01 T02610180  RH  061%=      5-min Rain = 0
KAM3 242104Z 14006KT 26/18 A2992 RMK A01 T02620177  RH  059%=      5-min Rain = 0
KAM3 242105Z 10006KT 26/18 A2992 RMK A01 T02630178  RH  060%=      5-min Rain = 0
KAM3 242106Z 14005KT 26/18 A2991 RMK A01 T02630178  RH  060%=      5-min Rain = 0
KAM3 242107Z 15005KT 26/18 A2991 RMK A01 T02630179  RH  060%=      5-min Rain = 0
KAM3 242108Z 15006KT 26/16 A2991 RMK A01 T02630156  RH  052%=      5-min Rain = 0
KAM3 242109Z 17005KT 26/16 A2991 RMK A01 T02630156  RH  052%=      5-min Rain = 0
KAM3 242110Z 13006KT 26/16 A2991 RMK A01 T02630157  RH  052%=      5-min Rain = 0
KAM3 242111Z 13006KT 26/16 A2991 RMK A01 T02630164  RH  054%=      5-min Rain = 0
KAM3 242112Z 12006KT 26/16 A2991 RMK A01 T02630163  RH  054%=      5-min Rain = 0
KAM3 242113Z 13005KT 26/16 A2991 RMK A01 T02640160  RH  053%=      5-min Rain = 0
KAM3 242114Z 15004KT 26/17 A2991 RMK A01 T02640169  RH  056%=      5-min Rain = 0
KAM3 242115Z 18006KT 27/16 A2991 RMK A01 T02660157  RH  051%=      5-min Rain = 0
KAM3 242116Z 18004KT 27/15 A2991 RMK A01 T02660154  RH  050%=      5-min Rain = 0
KAM3 242117Z 18004KT 27/16 A2991 RMK A01 T02660157  RH  051%=      5-min Rain = 0
KAM3 242118Z 17004KT 27/15 A2991 RMK A01 T02670154  RH  050%=      5-min Rain = 0
KAM3 242119Z 19003KT 27/16 A2991 RMK A01 T02660164  RH  053%=      5-min Rain = 0
KAM3 242120Z 18002KT 27/17 A2991 RMK A01 T02680167  RH  054%=      5-min Rain = 0
KAM3 242121Z 13001KT 27/16 A299 RMK A01 T02690163  RH  052%=      5-min Rain = 0
KAM3 242122Z 21003KT 27/17 A299 RMK A01 T02710165  RH  052%=      5-min Rain = 0
KAM3 242123Z 20002KT 27/16 A299 RMK A01 T02720162  RH  051%=      5-min Rain = 0
KAM3 242124Z 25001KT 27/17 A299 RMK A01 T02720171  RH  054%=      5-min Rain = 0
KAM3 242125Z 12004KT 27/17 A299 RMK A01 T02730166  RH  052%=      5-min Rain = 0
KAM3 242126Z 13005KT 27/17 A299 RMK A01 T02730172  RH  054%=      5-min Rain = 0
KAM3 242127Z 15007KT 27/17 A299 RMK A01 T02720167  RH  053%=      5-min Rain = 0
KAM3 242128Z 18004KT 27/16 A2989 RMK A01 T02710160  RH  051%=      5-min Rain = 0
KAM3 242129Z 19006KT 27/16 A2989 RMK A01 T02710160  RH  051%=      5-min Rain = 0
KAM3 242130Z 13004KT 27/16 A2989 RMK A01 T02710163  RH  052%=      5-min Rain = 0
KAM3 242131Z 14006KT 27/17 A2989 RMK A01 T02710168  RH  053%=      5-min Rain = 0
KAM3 242132Z 14007KT 27/17 A2989 RMK A01 T02720168  RH  053%=      5-min Rain = 0
KAM3 242133Z 13005KT 27/16 A2989 RMK A01 T02710156  RH  049%=      5-min Rain = 0
KAM3 242134Z 14003KT 27/16 A2989 RMK A01 T02690159  RH  051%=      5-min Rain = 0
KAM3 242135Z 12004KT 27/15 A2989 RMK A01 T02680153  RH  049%=      5-min Rain = 0
KAM3 242136Z 12004KT 27/16 A2989 RMK A01 T02680155  RH  050%=      5-min Rain = 0
KAM3 242137Z 05002KT 27/16 A2989 RMK A01 T02680162  RH  052%=      5-min Rain = 0
KAM3 242138Z 07001KT 27/16 A2989 RMK A01 T02690155  RH  050%=      5-min Rain = 0
KAM3 242139Z 14004KT 27/16 A2989 RMK A01 T02700164  RH  052%=      5-min Rain = 0
KAM3 242140Z 13007KT 27/17 A2989 RMK A01 T02720167  RH  052%=      5-min Rain = 0
KAM3 242141Z 15008KT 27/17 A2989 RMK A01 T02740165  RH  051%=      5-min Rain = 0
KAM3 242142Z 14006KT 28/17 A2989 RMK A01 T02750165  RH  051%=      5-min Rain = 0
KAM3 242143Z 15008KT 28/16 A2989 RMK A01 T02750161  RH  050%=      5-min Rain = 0
KAM3 242144Z 15006KT 28/17 A2989 RMK A01 T02750165  RH  051%=      5-min Rain = 0
KAM3 242145Z 13008KT 28/16 A2989 RMK A01 T02750160  RH  050%=      5-min Rain = 0
KAM3 242146Z 14006KT 27/16 A2989 RMK A01 T02740164  RH  051%=      5-min Rain = 0
KAM3 242147Z 14006KT 27/16 A2989 RMK A01 T02740163  RH  051%=      5-min Rain = 0
KAM3 242148Z 15005KT 27/16 A2989 RMK A01 T02740155  RH  048%=      5-min Rain = 0
KAM3 242149Z 13004KT 27/15 A2989 RMK A01 T02740152  RH  047%=      5-min Rain = 0
KAM3 242150Z 12004KT 27/16 A2989 RMK A01 T02740157  RH  049%=      5-min Rain = 0
KAM3 242151Z 13003KT 27/16 A2989 RMK A01 T02740158  RH  049%=      5-min Rain = 0
KAM3 242152Z 18004KT 28/17 A2989 RMK A01 T02750168  RH  052%=      5-min Rain = 0
KAM3 242153Z 16006KT 28/15 A2989 RMK A01 T02780152  RH  046%=      5-min Rain = 0
KAM3 242154Z 16005G10KT 28/14 A2989 RMK A01 T02790135  RH  041%=      5-min Rain = 0
KAM3 242155Z 14010KT 28/15 A2989 RMK A01 T02790148  RH  045%=      5-min Rain = 0
KAM3 242156Z 14009KT 28/14 A2989 RMK A01 T02790143  RH  043%=      5-min Rain = 0
KAM3 242157Z 15008KT 28/14 A2989 RMK A01 T02790139  RH  042%=      5-min Rain = 0
KAM3 242158Z 14005KT 28/14 A2989 RMK A01 T02780141  RH  043%=      5-min Rain = 0
KAM3 242159Z 16005KT 28/15 A2989 RMK A01 T02780145  RH  044%=      5-min Rain = 0
KAM3 242200Z 14004KT 28/14 A2989 RMK A01 T02780142  RH  043%=      5-min Rain = 0
KAM3 242201Z 13003KT 28/16 A2989 RMK A01 T02790155  RH  047%=      5-min Rain = 0
KAM3 242202Z 13005KT 28/15 A2989 RMK A01 T02800147  RH  044%=      5-min Rain = 0
KAM3 242203Z 15005KT 28/15 A2989 RMK A01 T02810152  RH  045%=      5-min Rain = 0
KAM3 242204Z 16008KT 28/15 A2989 RMK A01 T02810154  RH  046%=      5-min Rain = 0
KAM3 242205Z 15006KT 28/16 A2989 RMK A01 T02820155  RH  046%=      5-min Rain = 0
KAM3 242206Z 15007KT 28/16 A2989 RMK A01 T02830159  RH  047%=      5-min Rain = 0
KAM3 242207Z 14008KT 28/16 A2989 RMK A01 T02830161  RH  047%=      5-min Rain = 0
KAM3 242208Z 16011KT 28/15 A2989 RMK A01 T02840151  RH  044%=      5-min Rain = 0
KAM3 242209Z 15009KT 28/14 A2988 RMK A01 T02820142  RH  042%=      5-min Rain = 0
KAM3 242210Z 14008KT 28/15 A2988 RMK A01 T02810150  RH  045%=      5-min Rain = 0
KAM3 242211Z 14010KT 28/15 A2988 RMK A01 T02810152  RH  045%=      5-min Rain = 0
KAM3 242212Z 13010KT 28/15 A2988 RMK A01 T02800146  RH  044%=      5-min Rain = 0
KAM3 242213Z 12012KT 28/15 A2988 RMK A01 T02790147  RH  044%=      5-min Rain = 0
KAM3 242214Z 11010KT 28/15 A2988 RMK A01 T02780145  RH  044%=      5-min Rain = 0
KAM3 242215Z 12011KT 28/15 A2988 RMK A01 T02770148  RH  045%=      5-min Rain = 0
KAM3 242216Z 12011KT 28/15 A2988 RMK A01 T02770145  RH  045%=      5-min Rain = 0
KAM3 242217Z 12009KT 28/15 A2988 RMK A01 T02770151  RH  046%=      5-min Rain = 0
KAM3 242218Z 12011G18KT 28/16 A2988 RMK A01 T02770155  RH  047%=      5-min Rain = 0
KAM3 242219Z 12014KT 28/20 A2988 RMK A01 T02750195  RH  062%=      5-min Rain = 0
KAM3 242220Z 12015KT 27/20 A2988 RMK A01 T02650197  RH  066%=      5-min Rain = 0
KAM3 242221Z 12012KT 26/20 A2988 RMK A01 T02580200  RH  070%=      5-min Rain = 0
KAM3 242222Z 11012KT 26/20 A2988 RMK A01 T02550201  RH  072%=      5-min Rain = 0
KAM3 242223Z 11012G17KT 25/20 A2988 RMK A01 T02530202  RH  073%=      5-min Rain = 0
KAM3 242224Z 11013KT 25/20 A2988 RMK A01 T02520200  RH  073%=      5-min Rain = 0
KAM3 242225Z 12013KT 25/20 A2988 RMK A01 T02510200  RH  073%=      5-min Rain = 0
KAM3 242226Z 12015KT 25/20 A2988 RMK A01 T02530203  RH  073%=      5-min Rain = 0
KAM3 242227Z 12017G22KT 26/20 A2988 RMK A01 T02550200  RH  072%=      5-min Rain = 0
KAM3 242228Z 11018KT 25/20 A2988 RMK A01 T02520200  RH  073%=      5-min Rain = 0
KAM3 242229Z 12019KT 25/20 A2988 RMK A01 T02500198  RH  073%=      5-min Rain = 0
KAM3 242230Z 11017KT 25/20 A2988 RMK A01 T02480199  RH  074%=      5-min Rain = 0
KAM3 242231Z 12017KT 25/20 A2988 RMK A01 T02470199  RH  075%=      5-min Rain = 0
KAM3 242232Z 12018KT 25/20 A2988 RMK A01 T02470198  RH  074%=      5-min Rain = 0
KAM3 242233Z 12017KT 25/20 A2988 RMK A01 T02470199  RH  075%=      5-min Rain = 0
KAM3 242234Z 12016KT 25/20 A2988 RMK A01 T02470200  RH  075%=      5-min Rain = 0
KAM3 242235Z 12018KT 25/20 A2988 RMK A01 T02480198  RH  074%=      5-min Rain = 0
KAM3 242236Z 12016KT 25/20 A2988 RMK A01 T02480199  RH  074%=      5-min Rain = 0
KAM3 242237Z 12017KT 25/20 A2988 RMK A01 T02490196  RH  072%=      5-min Rain = 0
KAM3 242238Z 13014KT 25/20 A2987 RMK A01 T02490198  RH  073%=      5-min Rain = 0
KAM3 242239Z 13015KT 25/20 A2987 RMK A01 T02500196  RH  072%=      5-min Rain = 0
KAM3 242240Z 12013KT 25/20 A2987 RMK A01 T02500195  RH  072%=      5-min Rain = 0
KAM3 242241Z 12013KT 25/20 A2987 RMK A01 T02510197  RH  072%=      5-min Rain = 0
KAM3 242242Z 11015KT 25/20 A2987 RMK A01 T02510195  RH  071%=      5-min Rain = 0
KAM3 242243Z 12014KT 25/20 A2987 RMK A01 T02500197  RH  072%=      5-min Rain = 0
KAM3 242244Z 11015KT 25/20 A2987 RMK A01 T02500195  RH  071%=      5-min Rain = 0
KAM3 242245Z 11016KT 25/19 A2987 RMK A01 T02500193  RH  071%=      5-min Rain = 0
KAM3 242246Z 11014KT 25/19 A2987 RMK A01 T02490192  RH  071%=      5-min Rain = 0
KAM3 242247Z 12016KT 25/19 A2987 RMK A01 T02490194  RH  072%=      5-min Rain = 0
KAM3 242248Z 11015KT 25/19 A2987 RMK A01 T02490193  RH  071%=      5-min Rain = 0
KAM3 242249Z 12013KT 25/20 A2987 RMK A01 T02500195  RH  072%=      5-min Rain = 0
KAM3 242250Z 12014KT 25/19 A2987 RMK A01 T02510194  RH  071%=      5-min Rain = 0
KAM3 242251Z 12016KT 25/19 A2987 RMK A01 T02530192  RH  069%=      5-min Rain = 0
KAM3 242252Z 12014KT 25/19 A2987 RMK A01 T02530191  RH  069%=      5-min Rain = 0
KAM3 242253Z 12013KT 25/19 A2987 RMK A01 T02520193  RH  070%=      5-min Rain = 0
KAM3 242254Z 12014KT 25/19 A2987 RMK A01 T02520192  RH  069%=      5-min Rain = 0
KAM3 242255Z 12014KT 25/19 A2987 RMK A01 T02510191  RH  069%=      5-min Rain = 0
KAM3 242256Z 12015KT 25/19 A2987 RMK A01 T02510192  RH  070%=      5-min Rain = 0
KAM3 242257Z 11015KT 25/19 A2987 RMK A01 T02500190  RH  069%=      5-min Rain = 0
KAM3 242258Z 11016KT 25/19 A2987 RMK A01 T02500189  RH  069%=      5-min Rain = 0
KAM3 242259Z 12015G20KT 25/19 A2987 RMK A01 T02490191  RH  070%=      5-min Rain = 0
KAM3 242300Z 12015KT 25/19 A2987 RMK A01 T02490192  RH  070%=      5-min Rain = 0
KAM3 242301Z 11013KT 25/19 A2987 RMK A01 T02490190  RH  069%=      5-min Rain = 0
KAM3 242302Z 11012KT 25/19 A2987 RMK A01 T02490188  RH  069%=      5-min Rain = 0
KAM3 242303Z 11014KT 25/19 A2987 RMK A01 T02490188  RH  069%=      5-min Rain = 0
KAM3 242304Z 12012KT 25/19 A2987 RMK A01 T02490191  RH  070%=      5-min Rain = 0
KAM3 242305Z 12013KT 25/19 A2987 RMK A01 T02490190  RH  069%=      5-min Rain = 0
KAM3 242306Z 12012KT 25/19 A2987 RMK A01 T02490190  RH  070%=      5-min Rain = 0
KAM3 242307Z 12011KT 25/19 A2987 RMK A01 T02500190  RH  069%=      5-min Rain = 0
KAM3 242308Z 12014KT 25/19 A2987 RMK A01 T02510189  RH  069%=      5-min Rain = 0
KAM3 242309Z 11012KT 25/19 A2987 RMK A01 T02500185  RH  067%=      5-min Rain = 0
KAM3 242310Z 09013KT 25/19 A2987 RMK A01 T02500190  RH  069%=      5-min Rain = 0
KAM3 242311Z 10012KT 25/19 A2987 RMK A01 T02490190  RH  070%=      5-min Rain = 0
KAM3 242312Z 10014KT 25/19 A2987 RMK A01 T02490188  RH  069%=      5-min Rain = 0
KAM3 242313Z 11014KT 25/19 A2987 RMK A01 T02490185  RH  067%=      5-min Rain = 0
KAM3 242314Z 12015KT 25/18 A2987 RMK A01 T02490184  RH  067%=      5-min Rain = 0
KAM3 242315Z 12014KT 25/19 A2987 RMK A01 T02480185  RH  068%=      5-min Rain = 0
KAM3 242316Z 11013KT 25/19 A2987 RMK A01 T02480187  RH  069%=      5-min Rain = 0
KAM3 242317Z 10013KT 25/19 A2987 RMK A01 T02480186  RH  068%=      5-min Rain = 0
KAM3 242318Z 10009KT 25/19 A2987 RMK A01 T02480187  RH  069%=      5-min Rain = 0
KAM3 242319Z 10010KT 25/19 A2987 RMK A01 T02490189  RH  069%=      5-min Rain = 0
KAM3 242320Z 12012KT 25/19 A2987 RMK A01 T02500187  RH  068%=      5-min Rain = 0
KAM3 242321Z 10013KT 25/19 A2987 RMK A01 T02500185  RH  067%=      5-min Rain = 0
KAM3 242322Z 11012KT 25/19 A2987 RMK A01 T02490187  RH  068%=      5-min Rain = 0
KAM3 242323Z 12011KT 25/19 A2987 RMK A01 T02490188  RH  069%=      5-min Rain = 0
KAM3 242324Z 12009KT 25/19 A2986 RMK A01 T02480188  RH  069%=      5-min Rain = 0
KAM3 242325Z 13011KT 25/19 A2986 RMK A01 T02490189  RH  069%=      5-min Rain = 0
KAM3 242326Z 12009KT 25/19 A2986 RMK A01 T02490186  RH  068%=      5-min Rain = 0
KAM3 242327Z 13011KT 25/19 A2986 RMK A01 T02500190  RH  069%=      5-min Rain = 0
KAM3 242328Z 12011KT 25/19 A2986 RMK A01 T02510190  RH  069%=      5-min Rain = 0
KAM3 242329Z 11010KT 25/19 A2986 RMK A01 T02500187  RH  068%=      5-min Rain = 0
KAM3 242330Z 12009KT 25/19 A2986 RMK A01 T02500190  RH  069%=      5-min Rain = 0
KAM3 242331Z 13012KT 25/19 A2986 RMK A01 T02510189  RH  068%=      5-min Rain = 0
KAM3 242332Z 13012KT 25/19 A2986 RMK A01 T02510186  RH  067%=      5-min Rain = 0
KAM3 242333Z 14011KT 25/19 A2986 RMK A01 T02500187  RH  068%=      5-min Rain = 0
KAM3 242334Z 13011KT 25/19 A2986 RMK A01 T02490186  RH  068%=      5-min Rain = 0
KAM3 242335Z 12012KT 25/19 A2986 RMK A01 T02490187  RH  068%=      5-min Rain = 0
KAM3 242336Z 11011KT 25/19 A2986 RMK A01 T02490185  RH  068%=      5-min Rain = 0
KAM3 242337Z 11011KT 25/19 A2986 RMK A01 T02490187  RH  068%=      5-min Rain = 0
KAM3 242338Z 11011KT 25/19 A2986 RMK A01 T02490187  RH  068%=      5-min Rain = 0
KAM3 242339Z 12009KT 25/19 A2986 RMK A01 T02500189  RH  069%=      5-min Rain = 0
KAM3 242340Z 13010KT 25/19 A2986 RMK A01 T02500190  RH  070%=      5-min Rain = 0
KAM3 242341Z 13013KT 25/19 A2986 RMK A01 T02510189  RH  068%=      5-min Rain = 0
KAM3 242342Z 12010KT 25/19 A2986 RMK A01 T02500189  RH  069%=      5-min Rain = 0
KAM3 242343Z 12012KT 25/19 A2986 RMK A01 T02500190  RH  070%=      5-min Rain = 0
KAM3 242344Z 12009KT 25/19 A2986 RMK A01 T02500191  RH  070%=      5-min Rain = 0
KAM3 242345Z 12008KT 25/19 A2986 RMK A01 T02500192  RH  070%=      5-min Rain = 0
KAM3 242346Z 11010KT 25/20 A2985 RMK A01 T02500195  RH  072%=      5-min Rain = 0
KAM3 242347Z 11011KT 25/19 A2985 RMK A01 T02510194  RH  071%=      5-min Rain = 0
KAM3 242348Z 11012KT 25/19 A2985 RMK A01 T02510192  RH  070%=      5-min Rain = 0
KAM3 242349Z 11011KT 25/19 A2985 RMK A01 T02490191  RH  070%=      5-min Rain = 0
KAM3 242350Z 11011KT 25/19 A2985 RMK A01 T02480192  RH  071%=      5-min Rain = 0
KAM3 242351Z 11009KT 25/19 A2985 RMK A01 T02480191  RH  071%=      5-min Rain = 0
KAM3 242352Z 11010KT 25/19 A2985 RMK A01 T02480193  RH  072%=      5-min Rain = 0
KAM3 242353Z 12010KT 25/19 A2985 RMK A01 T02480191  RH  071%=      5-min Rain = 0
KAM3 242354Z 11011KT 25/19 A2985 RMK A01 T02480189  RH  070%=      5-min Rain = 0
KAM3 242355Z 12011KT 25/19 A2985 RMK A01 T02480189  RH  070%=      5-min Rain = 0
KAM3 242356Z 11010KT 25/19 A2985 RMK A01 T02470189  RH  070%=      5-min Rain = 0
KAM3 242357Z 10010KT 25/19 A2985 RMK A01 T02470187  RH  069%=      5-min Rain = 0
KAM3 242358Z 10009KT 25/19 A2985 RMK A01 T02470187  RH  069%=      5-min Rain = 0
KAM3 242359Z 11009KT 25/19 A2985 RMK A01 T02470189  RH  070%=      5-min Rain = 0
KAM3 250000Z 10009KT 25/19 A2985 RMK A01 T02470190  RH  071%=      5-min Rain = 0
KAM3 250001Z 10009KT 25/19 A2984 RMK A01 T02480190  RH  070%=      5-min Rain = 0
KAM3 250002Z 12010KT 25/19 A2984 RMK A01 T02480191  RH  071%=      5-min Rain = 0
KAM3 250003Z 12010KT 25/19 A2984 RMK A01 T02480190  RH  070%=      5-min Rain = 0
KAM3 250004Z 13011KT 25/19 A2984 RMK A01 T02480188  RH  069%=      5-min Rain = 0
KAM3 250005Z 12010KT 25/19 A2984 RMK A01 T02480188  RH  069%=      5-min Rain = 0
KAM3 250006Z 12010KT 25/19 A2984 RMK A01 T02480189  RH  070%=      5-min Rain = 0
KAM3 250007Z 12010KT 25/19 A2984 RMK A01 T02480189  RH  070%=      5-min Rain = 0
KAM3 250008Z 12010KT 25/19 A2984 RMK A01 T02480188  RH  069%=      5-min Rain = 0
KAM3 250009Z 12010KT 25/19 A2984 RMK A01 T02470190  RH  070%=      5-min Rain = 0
KAM3 250010Z 11010KT 25/19 A2984 RMK A01 T02470188  RH  070%=      5-min Rain = 0
KAM3 250011Z 12010KT 25/19 A2984 RMK A01 T02470190  RH  071%=      5-min Rain = 0
KAM3 250012Z 12010KT 25/19 A2984 RMK A01 T02470189  RH  070%=      5-min Rain = 0
KAM3 250013Z 13009KT 25/19 A2984 RMK A01 T02470190  RH  071%=      5-min Rain = 0
KAM3 250014Z 12009KT 25/19 A2984 RMK A01 T02470192  RH  071%=      5-min Rain = 0
KAM3 250015Z 11012KT 25/19 A2984 RMK A01 T02470188  RH  070%=      5-min Rain = 0
KAM3 250016Z 10011KT 25/19 A2984 RMK A01 T02470188  RH  070%=      5-min Rain = 0
KAM3 250017Z 10011KT 25/19 A2984 RMK A01 T02470190  RH  071%=      5-min Rain = 0
KAM3 250018Z 10010KT 25/19 A2984 RMK A01 T02460189  RH  070%=      5-min Rain = 0
KAM3 250019Z 10012KT 25/19 A2984 RMK A01 T02460190  RH  071%=      5-min Rain = 0
KAM3 250020Z 10010KT 25/19 A2984 RMK A01 T02450190  RH  071%=      5-min Rain = 0
KAM3 250021Z 10010KT 25/19 A2984 RMK A01 T02450191  RH  072%=      5-min Rain = 0
KAM3 250022Z 11010KT 25/19 A2984 RMK A01 T02460190  RH  071%=      5-min Rain = 0
KAM3 250023Z 10011KT 25/19 A2984 RMK A01 T02450190  RH  071%=      5-min Rain = 0
KAM3 250024Z 10010KT 25/19 A2984 RMK A01 T02450190  RH  071%=      5-min Rain = 0
KAM3 250025Z 10010KT 25/19 A2984 RMK A01 T02450191  RH  072%=      5-min Rain = 0
KAM3 250026Z 11009KT 25/19 A2984 RMK A01 T02450191  RH  072%=      5-min Rain = 0
KAM3 250027Z 12008KT 25/19 A2984 RMK A01 T02450193  RH  073%=      5-min Rain = 0
KAM3 250028Z 12009KT 25/19 A2984 RMK A01 T02450194  RH  073%=      5-min Rain = 0
KAM3 250029Z 11007KT 25/20 A2984 RMK A01 T02450195  RH  074%=      5-min Rain = 0
KAM3 250030Z 12008KT 25/19 A2984 RMK A01 T02450194  RH  073%=      5-min Rain = 0
KAM3 250031Z 12007KT 25/19 A2983 RMK A01 T02450193  RH  073%=      5-min Rain = 0
KAM3 250032Z 12008KT 25/19 A2983 RMK A01 T02450191  RH  071%=      5-min Rain = 0
KAM3 250033Z 11010KT 25/19 A2983 RMK A01 T02450189  RH  071%=      5-min Rain = 0
KAM3 250034Z 11009KT 25/19 A2983 RMK A01 T02450188  RH  071%=      5-min Rain = 0
KAM3 250035Z 11009KT 25/19 A2983 RMK A01 T02450190  RH  072%=      5-min Rain = 0
KAM3 250036Z 11009KT 24/19 A2983 RMK A01 T02440188  RH  071%=      5-min Rain = 0
KAM3 250037Z 11009KT 25/19 A2983 RMK A01 T02450189  RH  071%=      5-min Rain = 0
KAM3 250038Z 11008KT 24/19 A2983 RMK A01 T02440190  RH  072%=      5-min Rain = 0
KAM3 250039Z 13008KT 24/19 A2983 RMK A01 T02440191  RH  072%=      5-min Rain = 0
KAM3 250040Z 13008KT 24/19 A2983 RMK A01 T02440191  RH  072%=      5-min Rain = 0
KAM3 250041Z 12006KT 25/19 A2983 RMK A01 T02450193  RH  073%=      5-min Rain = 0
KAM3 250042Z 13007KT 24/19 A2983 RMK A01 T02440193  RH  073%=      5-min Rain = 0
KAM3 250043Z 13008KT 24/19 A2983 RMK A01 T02440191  RH  072%=      5-min Rain = 0
KAM3 250044Z 13007KT 24/19 A2983 RMK A01 T02440191  RH  072%=      5-min Rain = 0
KAM3 250045Z 13007KT 24/19 A2983 RMK A01 T02440191  RH  072%=      5-min Rain = 0
KAM3 250046Z 12007KT 24/19 A2983 RMK A01 T02440191  RH  072%=      5-min Rain = 0
KAM3 250047Z 12009KT 24/19 A2983 RMK A01 T02430191  RH  073%=      5-min Rain = 0
KAM3 250048Z 12008KT 24/19 A2983 RMK A01 T02430190  RH  072%=      5-min Rain = 0
KAM3 250049Z 12011KT 24/19 A2983 RMK A01 T02420190  RH  073%=      5-min Rain = 0
KAM3 250050Z 12010KT 24/19 A2983 RMK A01 T02420189  RH  072%=      5-min Rain = 0
KAM3 250051Z 12011KT 24/19 A2983 RMK A01 T02420189  RH  072%=      5-min Rain = 0
KAM3 250052Z 12009KT 24/19 A2983 RMK A01 T02410190  RH  073%=      5-min Rain = 0
KAM3 250053Z 12010KT 24/19 A2983 RMK A01 T02400188  RH  073%=      5-min Rain = 0
KAM3 250054Z 12009KT 24/19 A2983 RMK A01 T02400190  RH  073%=      5-min Rain = 0
KAM3 250055Z 12011KT 24/19 A2983 RMK A01 T02400188  RH  073%=      5-min Rain = 0
KAM3 250056Z 12011KT 24/19 A2983 RMK A01 T02400188  RH  073%=      5-min Rain = 0
KAM3 250057Z 12010KT 24/19 A2983 RMK A01 T02400189  RH  073%=      5-min Rain = 0
KAM3 250058Z 12009KT 24/19 A2983 RMK A01 T02390190  RH  074%=      5-min Rain = 0
KAM3 250059Z 12010KT 24/19 A2983 RMK A01 T02390191  RH  074%=      5-min Rain = 0
KAM3 250100Z 12010KT 24/19 A2983 RMK A01 T02390191  RH  075%=      5-min Rain = 0
KAM3 250101Z 12009KT 24/19 A2983 RMK A01 T02380192  RH  075%=      5-min Rain = 0
KAM3 250102Z 12010KT 24/19 A2983 RMK A01 T02380193  RH  076%=      5-min Rain = 0
KAM3 250103Z 12010KT 24/19 A2983 RMK A01 T02370193  RH  076%=      5-min Rain = 0
KAM3 250104Z 12011KT 24/19 A2983 RMK A01 T02370194  RH  077%=      5-min Rain = 0
KAM3 250105Z 12009KT 24/20 A2983 RMK A01 T02370195  RH  077%=      5-min Rain = 0
KAM3 250106Z 12009KT 24/20 A2983 RMK A01 T02370196  RH  078%=      5-min Rain = 0
KAM3 250107Z 12010KT 24/20 A2983 RMK A01 T02360196  RH  078%=      5-min Rain = 0
KAM3 250108Z 12010KT 24/20 A2983 RMK A01 T02360196  RH  078%=      5-min Rain = 0
KAM3 250109Z 12008KT 24/20 A2983 RMK A01 T02360196  RH  078%=      5-min Rain = 0
KAM3 250110Z 13010KT 24/20 A2983 RMK A01 T02360196  RH  079%=      5-min Rain = 0
KAM3 250111Z 12009KT 24/20 A2983 RMK A01 T02360196  RH  078%=      5-min Rain = 0
KAM3 250112Z 12012KT 24/20 A2983 RMK A01 T02350195  RH  078%=      5-min Rain = 0
KAM3 250113Z 13010KT 24/20 A2983 RMK A01 T02350195  RH  078%=      5-min Rain = 0
KAM3 250114Z 13008KT 24/20 A2983 RMK A01 T02350195  RH  078%=      5-min Rain = 0
KAM3 250115Z 12007KT 24/20 A2983 RMK A01 T02350196  RH  079%=      5-min Rain = 0
KAM3 250116Z 12008KT 23/20 A2984 RMK A01 T02340196  RH  079%=      5-min Rain = 0
KAM3 250117Z 13009KT 23/20 A2984 RMK A01 T02330195  RH  079%=      5-min Rain = 0
KAM3 250118Z 13007KT 23/20 A2984 RMK A01 T02330195  RH  079%=      5-min Rain = 0
KAM3 250119Z 13009KT 23/20 A2984 RMK A01 T02330195  RH  079%=      5-min Rain = 0
KAM3 250120Z 13008KT 23/19 A2984 RMK A01 T02320194  RH  079%=      5-min Rain = 0
KAM3 250121Z 13007KT 23/20 A2984 RMK A01 T02320195  RH  079%=      5-min Rain = 0
KAM3 250122Z 13008KT 23/19 A2984 RMK A01 T02320194  RH  079%=      5-min Rain = 0
KAM3 250123Z 13008KT 23/20 A2984 RMK A01 T02320195  RH  080%=      5-min Rain = 0
KAM3 250124Z 13008KT 23/20 A2984 RMK A01 T02310195  RH  080%=      5-min Rain = 0
KAM3 250125Z 13007KT 23/20 A2985 RMK A01 T02310195  RH  080%=      5-min Rain = 0
KAM3 250126Z 12006KT 23/20 A2985 RMK A01 T02300196  RH  081%=      5-min Rain = 0
KAM3 250127Z 13007KT 23/20 A2985 RMK A01 T02290196  RH  082%=      5-min Rain = 0
KAM3 250128Z 13008KT 23/20 A2985 RMK A01 T02280196  RH  082%=      5-min Rain = 0
KAM3 250129Z 13007KT 23/20 A2985 RMK A01 T02280196  RH  082%=      5-min Rain = 0
KAM3 250130Z 12006KT 23/20 A2985 RMK A01 T02270196  RH  083%=      5-min Rain = 0
KAM3 250131Z 12007KT 23/20 A2985 RMK A01 T02260196  RH  083%=      5-min Rain = 0
KAM3 250132Z 13008KT 23/20 A2985 RMK A01 T02260196  RH  083%=      5-min Rain = 0
KAM3 250133Z 12007KT 23/20 A2985 RMK A01 T02260197  RH  084%=      5-min Rain = 0
KAM3 250134Z 12007KT 23/20 A2985 RMK A01 T02250197  RH  084%=      5-min Rain = 0
KAM3 250135Z 13006KT 23/20 A2985 RMK A01 T02250197  RH  084%=      5-min Rain = 0
KAM3 250136Z 13007KT 22/20 A2985 RMK A01 T02240198  RH  085%=      5-min Rain = 0
KAM3 250137Z 13007KT 22/20 A2985 RMK A01 T02240198  RH  085%=      5-min Rain = 0
KAM3 250138Z 13006KT 22/20 A2985 RMK A01 T02240198  RH  085%=      5-min Rain = 0
KAM3 250139Z 13006KT 22/20 A2985 RMK A01 T02230198  RH  086%=      5-min Rain = 0
KAM3 250140Z 13006KT 22/20 A2986 RMK A01 T02220199  RH  087%=      5-min Rain = 0
KAM3 250141Z 13006KT 22/20 A2986 RMK A01 T02220199  RH  087%=      5-min Rain = 0
KAM3 250142Z 13006KT 22/20 A2986 RMK A01 T02210200  RH  088%=      5-min Rain = 0
KAM3 250143Z 13006KT 22/20 A2986 RMK A01 T02210201  RH  088%=      5-min Rain = 0
KAM3 250144Z 13006KT 22/20 A2986 RMK A01 T02200201  RH  089%=      5-min Rain = 0
KAM3 250145Z 12005KT 22/20 A2986 RMK A01 T02200201  RH  089%=      5-min Rain = 0
KAM3 250146Z 13005KT 22/20 A2986 RMK A01 T02180202  RH  090%=      5-min Rain = 0
KAM3 250147Z 13005KT 22/20 A2986 RMK A01 T02180204  RH  092%=      5-min Rain = 0
KAM3 250148Z 13006KT 22/21 A2986 RMK A01 T02170205  RH  093%=      5-min Rain = 0
KAM3 250149Z 13006KT 22/21 A2986 RMK A01 T02170205  RH  093%=      5-min Rain = 0
KAM3 250150Z 13006KT 22/21 A2986 RMK A01 T02170206  RH  093%=      5-min Rain = 0
KAM3 250151Z 13006KT 22/21 A2986 RMK A01 T02160206  RH  094%=      5-min Rain = 0
KAM3 250152Z 14008KT 22/21 A2986 RMK A01 T02160207  RH  095%=      5-min Rain = 0
KAM3 250153Z 14007KT 22/21 A2987 RMK A01 T02150206  RH  094%=      5-min Rain = 0
KAM3 250154Z 14006KT 22/21 A2987 RMK A01 T02150205  RH  094%=      5-min Rain = 0
KAM3 250155Z 14007KT 22/20 A2987 RMK A01 T02150204  RH  093%=      5-min Rain = 0
KAM3 250156Z 13006KT 22/20 A2987 RMK A01 T02160204  RH  093%=      5-min Rain = 0
KAM3 250157Z 14006KT 22/21 A2987 RMK A01 T02150206  RH  095%=      5-min Rain = 0
KAM3 250158Z 14007KT 22/21 A2987 RMK A01 T02150206  RH  095%=      5-min Rain = 0
KAM3 250159Z 14007KT 21/20 A2987 RMK A01 T02140204  RH  094%=      5-min Rain = 0
KAM3 250200Z 15007KT 21/20 A2987 RMK A01 T02140203  RH  093%=      5-min Rain = 0
KAM3 250201Z 15007KT 22/20 A2987 RMK A01 T02150202  RH  093%=      5-min Rain = 0
KAM3 250202Z 15009KT 22/20 A2987 RMK A01 T02150203  RH  093%=      5-min Rain = 0
KAM3 250203Z 14008KT 22/20 A2987 RMK A01 T02150203  RH  093%=      5-min Rain = 0
KAM3 250204Z 15009KT 21/20 A2987 RMK A01 T02140203  RH  093%=      5-min Rain = 0
KAM3 250205Z 15009KT 22/20 A2987 RMK A01 T02150203  RH  093%=      5-min Rain = 0
KAM3 250206Z 15011KT 21/20 A2987 RMK A01 T02140204  RH  094%=      5-min Rain = 0
KAM3 250207Z 15010KT 22/20 A2987 RMK A01 T02150203  RH  093%=      5-min Rain = 0
KAM3 250208Z 15010KT 22/20 A2987 RMK A01 T02160203  RH  092%=      5-min Rain = 0
KAM3 250209Z 15011KT 22/20 A2987 RMK A01 T02150203  RH  092%=      5-min Rain = 0
KAM3 250210Z 15013KT 22/20 A2987 RMK A01 T02150203  RH  093%=      5-min Rain = 0
KAM3 250211Z 15012KT 22/20 A2987 RMK A01 T02150203  RH  093%=      5-min Rain = 0
KAM3 250212Z 15012KT 22/20 A2987 RMK A01 T02150202  RH  093%=      5-min Rain = 0
KAM3 250213Z 15011KT 21/20 A2987 RMK A01 T02140202  RH  093%=      5-min Rain = 0
KAM3 250214Z 15012KT 21/20 A2987 RMK A01 T02140202  RH  093%=      5-min Rain = 0
KAM3 250215Z 14013KT 21/20 A2987 RMK A01 T02130202  RH  093%=      5-min Rain = 0
KAM3 250216Z 15012KT 21/20 A2987 RMK A01 T02130202  RH  093%=      5-min Rain = 0
KAM3 250217Z 15011KT 21/20 A2987 RMK A01 T02130202  RH  094%=      5-min Rain = 0
KAM3 250218Z 15012KT 21/20 A2987 RMK A01 T02120203  RH  094%=      5-min Rain = 0
KAM3 250219Z 15012KT 21/20 A2987 RMK A01 T02120202  RH  094%=      5-min Rain = 0
KAM3 250220Z 15011KT 21/20 A2988 RMK A01 T02120202  RH  094%=      5-min Rain = 0
KAM3 250221Z 15012KT 21/20 A2988 RMK A01 T02120202  RH  094%=      5-min Rain = 0
KAM3 250222Z 15011KT 21/20 A2988 RMK A01 T02110202  RH  094%=      5-min Rain = 0
KAM3 250223Z 15012KT 21/20 A2988 RMK A01 T02110202  RH  095%=      5-min Rain = 0
KAM3 250224Z 15011KT 21/20 A2988 RMK A01 T02100203  RH  095%=      5-min Rain = 0
KAM3 250225Z 15010KT 21/20 A2988 RMK A01 T02100203  RH  096%=      5-min Rain = 0
KAM3 250226Z 15011KT 21/20 A2988 RMK A01 T02100204  RH  097%=      5-min Rain = 0
KAM3 250227Z 15012KT 21/20 A2988 RMK A01 T02090204  RH  097%=      5-min Rain = 0
KAM3 250228Z 15012KT 21/20 A2988 RMK A01 T02090203  RH  096%=      5-min Rain = 0
KAM3 250229Z 15015KT 21/20 A2988 RMK A01 T02090201  RH  095%=      5-min Rain = 0
KAM3 250230Z 16013KT 21/20 A2988 RMK A01 T02090199  RH  094%=      5-min Rain = 0
KAM3 250231Z 16014KT 21/20 A2988 RMK A01 T02090197  RH  093%=      5-min Rain = 0
KAM3 250232Z 16014KT 21/20 A2988 RMK A01 T02090195  RH  091%=      5-min Rain = 0
KAM3 250233Z 16012KT 21/19 A2988 RMK A01 T02090194  RH  091%=      5-min Rain = 0
KAM3 250234Z 15012KT 21/19 A2988 RMK A01 T02090193  RH  091%=      5-min Rain = 0
KAM3 250235Z 15012KT 21/19 A2988 RMK A01 T02080193  RH  091%=      5-min Rain = 0
KAM3 250236Z 15011KT 21/20 A2988 RMK A01 T02070195  RH  093%=      5-min Rain = 0
KAM3 250237Z 15011KT 21/20 A2988 RMK A01 T02060197  RH  094%=      5-min Rain = 0
KAM3 250238Z 15012KT 21/20 A2988 RMK A01 T02050199  RH  096%=      5-min Rain = 0
KAM3 250239Z 15012KT 21/20 A2988 RMK A01 T02050199  RH  097%=      5-min Rain = 0
KAM3 250240Z 14013KT 21/20 A2988 RMK A01 T02050199  RH  096%=      5-min Rain = 0
KAM3 250241Z 14013KT 21/20 A2988 RMK A01 T02050198  RH  096%=      5-min Rain = 0
KAM3 250242Z 14011KT 21/20 A2988 RMK A01 T02050198  RH  096%=      5-min Rain = 0
KAM3 250243Z 14013KT 20/20 A2988 RMK A01 T02040198  RH  096%=      5-min Rain = 0
KAM3 250244Z 14013KT 20/20 A2988 RMK A01 T02040198  RH  096%=      5-min Rain = 0
KAM3 250245Z 15012KT 20/20 A2988 RMK A01 T02040198  RH  097%=      5-min Rain = 0
KAM3 250246Z 15012KT 20/20 A2987 RMK A01 T02040200  RH  098%=      5-min Rain = 0
KAM3 250247Z 15010KT 20/20 A2987 RMK A01 T02030202  RH  099%=      5-min Rain = 0
KAM3 250248Z 15009KT 20/20 A2987 RMK A01 T02020202  RH  100%=      5-min Rain = 0
KAM3 250249Z 16010KT 20/20 A2987 RMK A01 T02020202  RH  100%=      5-min Rain = 0
KAM3 250250Z 16010KT 20/20 A2987 RMK A01 T02020202  RH  100%=      5-min Rain = 0
KAM3 250251Z 16010KT 20/20 A2987 RMK A01 T02010201  RH  100%=      5-min Rain = 0
KAM3 250252Z 16011KT 20/20 A2987 RMK A01 T02000201  RH  100%=      5-min Rain = 0
KAM3 250253Z 16012KT 20/20 A2987 RMK A01 T02000200  RH  100%=      5-min Rain = 0
KAM3 250254Z 16012KT 20/20 A2987 RMK A01 T02000200  RH  100%=      5-min Rain = 0
KAM3 250255Z 16012KT 20/20 A2987 RMK A01 T02000200  RH  100%=      5-min Rain = 0
KAM3 250256Z 16011KT 20/20 A2987 RMK A01 T02000200  RH  100%=      5-min Rain = 0
KAM3 250257Z 16013KT 20/20 A2987 RMK A01 T02000200  RH  100%=      5-min Rain = 0
KAM3 250258Z 16014KT 20/20 A2987 RMK A01 T01990197  RH  098%=      5-min Rain = 0
KAM3 250259Z 16014KT 20/19 A2987 RMK A01 T01990192  RH  096%=      5-min Rain = 0
KAM3 250300Z 16015KT 20/19 A2987 RMK A01 T01990188  RH  093%=      5-min Rain = 0
KAM3 250301Z 16017KT 20/19 A2987 RMK A01 T01990185  RH  092%=      5-min Rain = 0
KAM3 250302Z 16018KT 20/18 A2987 RMK A01 T01990180  RH  089%=      5-min Rain = 0
KAM3 250303Z 16015KT 20/18 A2987 RMK A01 T01990177  RH  087%=      5-min Rain = 0
KAM3 250304Z 16017KT 20/17 A2987 RMK A01 T01980173  RH  086%=      5-min Rain = 0
KAM3 250305Z 16016KT 20/17 A2987 RMK A01 T01980171  RH  085%=      5-min Rain = 0
KAM3 250306Z 16016KT 20/17 A2987 RMK A01 T01970170  RH  084%=      5-min Rain = 0
KAM3 250307Z 16016KT 20/17 A2987 RMK A01 T01960169  RH  084%=      5-min Rain = 0
KAM3 250308Z 16017KT 20/17 A2987 RMK A01 T01960168  RH  084%=      5-min Rain = 0
KAM3 250309Z 16015KT 20/17 A2987 RMK A01 T01960167  RH  083%=      5-min Rain = 0
KAM3 250310Z 16014KT 20/17 A2987 RMK A01 T01950167  RH  084%=      5-min Rain = 0
KAM3 250311Z 16014KT 19/17 A2987 RMK A01 T01940167  RH  084%=      5-min Rain = 0
KAM3 250312Z 16013KT 19/17 A2987 RMK A01 T01930167  RH  085%=      5-min Rain = 0
KAM3 250313Z 16012KT 19/17 A2987 RMK A01 T01930167  RH  085%=      5-min Rain = 0
KAM3 250314Z 16013KT 19/17 A2987 RMK A01 T01920167  RH  085%=      5-min Rain = 0
KAM3 250315Z 15013KT 19/17 A2987 RMK A01 T01910167  RH  085%=      5-min Rain = 0
KAM3 250316Z 15012KT 19/17 A2987 RMK A01 T01910166  RH  086%=      5-min Rain = 0
KAM3 250317Z 16011KT 19/17 A2987 RMK A01 T01900166  RH  086%=      5-min Rain = 0
KAM3 250318Z 16010KT 19/17 A2987 RMK A01 T01900167  RH  086%=      5-min Rain = 0
KAM3 250319Z 16011KT 19/17 A2987 RMK A01 T01890167  RH  087%=      5-min Rain = 0
KAM3 250320Z 16010KT 19/17 A2987 RMK A01 T01890165  RH  086%=      5-min Rain = 0
KAM3 250321Z 16010KT 19/17 A2987 RMK A01 T01890166  RH  086%=      5-min Rain = 0
KAM3 250322Z 16009KT 19/17 A2987 RMK A01 T01880165  RH  087%=      5-min Rain = 0
KAM3 250323Z 16011KT 19/17 A2987 RMK A01 T01880166  RH  087%=      5-min Rain = 0
KAM3 250324Z 16011KT 19/17 A2987 RMK A01 T01870165  RH  087%=      5-min Rain = 0
KAM3 250325Z 16012KT 19/17 A2988 RMK A01 T01870166  RH  087%=      5-min Rain = 0
KAM3 250326Z 16011KT 19/17 A2988 RMK A01 T01870165  RH  087%=      5-min Rain = 0
KAM3 250327Z 16012KT 19/17 A2988 RMK A01 T01860165  RH  087%=      5-min Rain = 0
KAM3 250328Z 16012KT 19/16 A2988 RMK A01 T01860164  RH  087%=      5-min Rain = 0
KAM3 250329Z 16012KT 19/16 A2988 RMK A01 T01860164  RH  087%=      5-min Rain = 0
KAM3 250330Z 16010KT 19/16 A2988 RMK A01 T01860163  RH  086%=      5-min Rain = 0
KAM3 250331Z 16012KT 19/16 A2988 RMK A01 T01860163  RH  086%=      5-min Rain = 0
KAM3 250332Z 16011KT 19/16 A2989 RMK A01 T01860163  RH  086%=      5-min Rain = 0
KAM3 250333Z 16011KT 19/16 A2989 RMK A01 T01860164  RH  087%=      5-min Rain = 0
KAM3 250334Z 16011KT 19/16 A2989 RMK A01 T01860163  RH  087%=      5-min Rain = 0
KAM3 250335Z 16010KT 19/16 A2989 RMK A01 T01860164  RH  087%=      5-min Rain = 0
KAM3 250336Z 16012KT 19/16 A2989 RMK A01 T01850164  RH  087%=      5-min Rain = 0
KAM3 250337Z 16011KT 19/16 A2989 RMK A01 T01850163  RH  087%=      5-min Rain = 0
KAM3 250338Z 17014KT 19/16 A2989 RMK A01 T01850161  RH  086%=      5-min Rain = 0
KAM3 250339Z 17015G20KT 19/16 A2989 RMK A01 T01850160  RH  085%=      5-min Rain = 0
KAM3 250340Z 17012KT 19/16 A2989 RMK A01 T01850159  RH  085%=      5-min Rain = 0
KAM3 250341Z 17014G21KT 19/16 A299 RMK A01 T01850159  RH  085%=      5-min Rain = 0
KAM3 250342Z 17013KT 19/16 A299 RMK A01 T01850158  RH  084%=      5-min Rain = 0
KAM3 250343Z 17015KT 19/16 A299 RMK A01 T01850157  RH  084%=      5-min Rain = 0
KAM3 250344Z 17017KT 19/16 A299 RMK A01 T01850157  RH  083%=      5-min Rain = 0
KAM3 250345Z 17015KT 19/16 A299 RMK A01 T01860156  RH  083%=      5-min Rain = 0
KAM3 250346Z 17015KT 19/16 A299 RMK A01 T01860157  RH  083%=      5-min Rain = 0
KAM3 250347Z 17013KT 19/16 A299 RMK A01 T01850157  RH  083%=      5-min Rain = 0
KAM3 250348Z 17012KT 19/16 A299 RMK A01 T01850157  RH  084%=      5-min Rain = 0
KAM3 250349Z 17014G21KT 19/16 A299 RMK A01 T01850157  RH  084%=      5-min Rain = 0
KAM3 250350Z 17014KT 18/16 A299 RMK A01 T01840157  RH  084%=      5-min Rain = 0
KAM3 250351Z 17013KT 18/16 A299 RMK A01 T01840157  RH  084%=      5-min Rain = 0
KAM3 250352Z 17011KT 18/16 A299 RMK A01 T01840157  RH  084%=      5-min Rain = 0
KAM3 250353Z 17013KT 18/16 A299 RMK A01 T01840158  RH  085%=      5-min Rain = 0
KAM3 250354Z 17012KT 18/16 A299 RMK A01 T01830157  RH  085%=      5-min Rain = 0
KAM3 250355Z 17014KT 18/16 A299 RMK A01 T01830158  RH  085%=      5-min Rain = 0
KAM3 250356Z 17016KT 18/16 A299 RMK A01 T01830157  RH  085%=      5-min Rain = 0
KAM3 250357Z 17014KT 18/16 A299 RMK A01 T01830157  RH  084%=      5-min Rain = 0
KAM3 250358Z 16013KT 18/16 A299 RMK A01 T01840157  RH  085%=      5-min Rain = 0
KAM3 250359Z 17015KT 18/16 A299 RMK A01 T01830157  RH  085%=      5-min Rain = 0
KAM3 250400Z 17013KT 18/16 A299 RMK A01 T01830157  RH  085%=      5-min Rain = 0
KAM3 250401Z 17012KT 18/16 A299 RMK A01 T01830158  RH  085%=      5-min Rain = 0
KAM3 250402Z 16013G19KT 18/16 A299 RMK A01 T01820158  RH  086%=      5-min Rain = 0
KAM3 250403Z 16013KT 18/16 A299 RMK A01 T01820158  RH  086%=      5-min Rain = 0
KAM3 250404Z 17014KT 18/16 A299 RMK A01 T01820157  RH  086%=      5-min Rain = 0
KAM3 250405Z 16013KT 18/16 A299 RMK A01 T01820157  RH  086%=      5-min Rain = 0
KAM3 250406Z 17014KT 18/16 A299 RMK A01 T01820157  RH  086%=      5-min Rain = 0
KAM3 250407Z 16012KT 18/16 A299 RMK A01 T01820157  RH  086%=      5-min Rain = 0
KAM3 250408Z 17013KT 18/16 A299 RMK A01 T01810157  RH  086%=      5-min Rain = 0
KAM3 250409Z 17013KT 18/16 A299 RMK A01 T01810157  RH  086%=      5-min Rain = 0
KAM3 250410Z 16011KT 18/16 A299 RMK A01 T01810157  RH  086%=      5-min Rain = 0
KAM3 250411Z 16012KT 18/16 A299 RMK A01 T01810157  RH  086%=      5-min Rain = 0
KAM3 250412Z 16012KT 18/16 A299 RMK A01 T01810157  RH  086%=      5-min Rain = 0
KAM3 250413Z 16013KT 18/16 A299 RMK A01 T01810157  RH  086%=      5-min Rain = 0
KAM3 250414Z 16012KT 18/16 A299 RMK A01 T01810157  RH  086%=      5-min Rain = 0
KAM3 250415Z 16011KT 18/16 A299 RMK A01 T01800156  RH  086%=      5-min Rain = 0
KAM3 250416Z 16013KT 18/16 A299 RMK A01 T01800156  RH  086%=      5-min Rain = 0
KAM3 250417Z 16010KT 18/16 A2991 RMK A01 T01800156  RH  086%=      5-min Rain = 0
KAM3 250418Z 15011KT 18/16 A2991 RMK A01 T01800157  RH  086%=      5-min Rain = 0
KAM3 250419Z 15010KT 18/16 A2991 RMK A01 T01800157  RH  087%=      5-min Rain = 0
KAM3 250420Z 15011KT 18/16 A2991 RMK A01 T01790158  RH  087%=      5-min Rain = 0
KAM3 250421Z 15010KT 18/16 A2991 RMK A01 T01780158  RH  088%=      5-min Rain = 0
KAM3 250422Z 15012KT 18/16 A2991 RMK A01 T01770158  RH  089%=      5-min Rain = 0
KAM3 250423Z 16011KT 18/16 A2991 RMK A01 T01770158  RH  089%=      5-min Rain = 0
KAM3 250424Z 16011KT 18/16 A2991 RMK A01 T01770158  RH  089%=      5-min Rain = 0
KAM3 250425Z 16009KT 18/16 A2991 RMK A01 T01760157  RH  088%=      5-min Rain = 0
KAM3 250426Z 16009KT 18/16 A2991 RMK A01 T01770158  RH  089%=      5-min Rain = 0
KAM3 250427Z 16009KT 18/16 A2991 RMK A01 T01770158  RH  089%=      5-min Rain = 0
KAM3 250428Z 16011KT 18/16 A2991 RMK A01 T01760157  RH  089%=      5-min Rain = 0
KAM3 250429Z 16011KT 18/16 A2991 RMK A01 T01770157  RH  088%=      5-min Rain = 0
KAM3 250430Z 16009KT 18/16 A2991 RMK A01 T01770156  RH  088%=      5-min Rain = 0
KAM3 250431Z 17009KT 18/16 A2991 RMK A01 T01770156  RH  088%=      5-min Rain = 0
KAM3 250432Z 17009KT 18/16 A2991 RMK A01 T01770157  RH  088%=      5-min Rain = 0
KAM3 250433Z 17008KT 18/16 A2991 RMK A01 T01770157  RH  088%=      5-min Rain = 0
KAM3 250434Z 17008KT 18/16 A2991 RMK A01 T01760157  RH  089%=      5-min Rain = 0
KAM3 250435Z 17007KT 18/16 A2991 RMK A01 T01760157  RH  089%=      5-min Rain = 0
KAM3 250436Z 17007KT 18/16 A2991 RMK A01 T01760158  RH  089%=      5-min Rain = 0
KAM3 250437Z 17006KT 18/16 A2991 RMK A01 T01750158  RH  089%=      5-min Rain = 0
KAM3 250438Z 17007KT 18/16 A2991 RMK A01 T01750158  RH  090%=      5-min Rain = 0
KAM3 250439Z 17006KT 18/16 A2991 RMK A01 T01750158  RH  090%=      5-min Rain = 0
KAM3 250440Z 17006KT 18/16 A2992 RMK A01 T01750158  RH  090%=      5-min Rain = 0
KAM3 250441Z 17008KT 17/16 A2992 RMK A01 T01740158  RH  090%=      5-min Rain = 0
KAM3 250442Z 17008KT 17/16 A2992 RMK A01 T01740158  RH  090%=      5-min Rain = 0
KAM3 250443Z 17008KT 17/16 A2992 RMK A01 T01740157  RH  090%=      5-min Rain = 0
KAM3 250444Z 17008KT 17/16 A2992 RMK A01 T01740157  RH  090%=      5-min Rain = 0
KAM3 250445Z 17007KT 17/16 A2992 RMK A01 T01740157  RH  090%=      5-min Rain = 0
KAM3 250446Z 16008KT 17/16 A2992 RMK A01 T01740157  RH  089%=      5-min Rain = 0
KAM3 250447Z 16009KT 18/16 A2992 RMK A01 T01750157  RH  089%=      5-min Rain = 0
KAM3 250448Z 17009KT 18/16 A2992 RMK A01 T01750157  RH  089%=      5-min Rain = 0
KAM3 250449Z 17008KT 18/16 A2992 RMK A01 T01750157  RH  089%=      5-min Rain = 0
KAM3 250450Z 17008KT 18/16 A2992 RMK A01 T01750157  RH  089%=      5-min Rain = 0
KAM3 250451Z 17009KT 17/16 A2992 RMK A01 T01740157  RH  090%=      5-min Rain = 0
KAM3 250452Z 17010KT 18/16 A2992 RMK A01 T01750157  RH  089%=      5-min Rain = 0
KAM3 250453Z 17010KT 18/16 A2992 RMK A01 T01750157  RH  089%=      5-min Rain = 0
KAM3 250454Z 17010KT 18/16 A2992 RMK A01 T01750157  RH  089%=      5-min Rain = 0
KAM3 250455Z 17010KT 18/16 A2992 RMK A01 T01760156  RH  088%=      5-min Rain = 0
KAM3 250456Z 17011KT 18/16 A2992 RMK A01 T01760157  RH  088%=      5-min Rain = 0
KAM3 250457Z 17010KT 18/16 A2992 RMK A01 T01760157  RH  088%=      5-min Rain = 0
KAM3 250458Z 17011KT 18/16 A2992 RMK A01 T01760156  RH  088%=      5-min Rain = 0
KAM3 250459Z 17012KT 18/16 A2992 RMK A01 T01770156  RH  087%=      5-min Rain = 0

Page generated in 0.1419 seconds.